Observation data for Stamford on 03/11/2018      Previous  Date  Next       Current Mesonet Observations  Soil Data  Daily Summary Page  Observations in Plain Language
KST2 110600Z 04007KT 16/06 A298 RMK A01 T01560061  RH  053%=      5-min Rain = 0
KST2 110601Z 04007KT 16/06 A298 RMK A01 T01550061  RH  053%=      5-min Rain = 0
KST2 110602Z 04007KT 15/06 A298 RMK A01 T01540060  RH  054%=      5-min Rain = 0
KST2 110603Z 04007KT 15/06 A298 RMK A01 T01520060  RH  054%=      5-min Rain = 0
KST2 110604Z 04007KT 15/06 A298 RMK A01 T01520060  RH  054%=      5-min Rain = 0
KST2 110605Z 04006KT 15/06 A298 RMK A01 T01500059  RH  055%=      5-min Rain = 0
KST2 110606Z 04006KT 15/06 A298 RMK A01 T01490059  RH  055%=      5-min Rain = 0
KST2 110607Z 04006KT 15/06 A298 RMK A01 T01470058  RH  055%=      5-min Rain = 0
KST2 110608Z 04006KT 15/06 A298 RMK A01 T01460058  RH  056%=      5-min Rain = 0
KST2 110609Z 05006KT 15/06 A298 RMK A01 T01450058  RH  056%=      5-min Rain = 0
KST2 110610Z 05006KT 14/06 A298 RMK A01 T01440058  RH  056%=      5-min Rain = 0
KST2 110611Z 04006KT 14/06 A298 RMK A01 T01430058  RH  057%=      5-min Rain = 0
KST2 110612Z 04007KT 14/06 A298 RMK A01 T01420058  RH  057%=      5-min Rain = 0
KST2 110613Z 04007KT 14/06 A298 RMK A01 T01420058  RH  057%=      5-min Rain = 0
KST2 110614Z 04008KT 14/06 A298 RMK A01 T01410057  RH  057%=      5-min Rain = 0
KST2 110615Z 04007KT 14/06 A2981 RMK A01 T01410057  RH  057%=      5-min Rain = 0
KST2 110616Z 03007KT 14/06 A2981 RMK A01 T01400057  RH  057%=      5-min Rain = 0
KST2 110617Z 02007KT 14/06 A2981 RMK A01 T01400058  RH  057%=      5-min Rain = 0
KST2 110618Z 01008KT 14/06 A2981 RMK A01 T01400058  RH  058%=      5-min Rain = 0
KST2 110619Z 00008KT 14/06 A2981 RMK A01 T01400059  RH  058%=      5-min Rain = 0
KST2 110620Z 36008KT 14/06 A2981 RMK A01 T01400059  RH  058%=      5-min Rain = 0
KST2 110621Z 01007KT 14/06 A2981 RMK A01 T01400057  RH  057%=      5-min Rain = 0
KST2 110622Z 01007KT 14/06 A2981 RMK A01 T01400056  RH  057%=      5-min Rain = 0
KST2 110623Z 01007KT 14/05 A2981 RMK A01 T01410054  RH  056%=      5-min Rain = 0
KST2 110624Z 01007KT 14/05 A2981 RMK A01 T01410053  RH  055%=      5-min Rain = 0
KST2 110625Z 00007KT 14/05 A2981 RMK A01 T01400051  RH  055%=      5-min Rain = 0
KST2 110626Z 36008KT 14/05 A2981 RMK A01 T01400050  RH  055%=      5-min Rain = 0
KST2 110627Z 35007KT 14/05 A2981 RMK A01 T01380049  RH  055%=      5-min Rain = 0
KST2 110628Z 35007KT 14/05 A2981 RMK A01 T01370048  RH  055%=      5-min Rain = 0
KST2 110629Z 35007KT 14/05 A2981 RMK A01 T01360047  RH  055%=      5-min Rain = 0
KST2 110630Z 35007KT 14/05 A2981 RMK A01 T01360046  RH  055%=      5-min Rain = 0
KST2 110631Z 35007KT 14/05 A2981 RMK A01 T01360045  RH  054%=      5-min Rain = 0
KST2 110632Z 35007KT 14/05 A2981 RMK A01 T01360045  RH  054%=      5-min Rain = 0
KST2 110633Z 36007KT 14/05 A2981 RMK A01 T01360045  RH  054%=      5-min Rain = 0
KST2 110634Z 00007KT 14/05 A2981 RMK A01 T01360045  RH  054%=      5-min Rain = 0
KST2 110635Z 00007KT 14/05 A2982 RMK A01 T01360045  RH  054%=      5-min Rain = 0
KST2 110636Z 00007KT 14/05 A2982 RMK A01 T01380046  RH  054%=      5-min Rain = 0
KST2 110637Z 00008KT 14/05 A2982 RMK A01 T01380046  RH  054%=      5-min Rain = 0
KST2 110638Z 35009KT 14/05 A2982 RMK A01 T01390046  RH  053%=      5-min Rain = 0
KST2 110639Z 34010KT 14/05 A2982 RMK A01 T01390046  RH  053%=      5-min Rain = 0
KST2 110640Z 35011KT 14/04 A2982 RMK A01 T01380044  RH  053%=      5-min Rain = 0
KST2 110641Z 35011KT 14/04 A2983 RMK A01 T01370043  RH  053%=      5-min Rain = 0
KST2 110642Z 34011KT 14/04 A2983 RMK A01 T01370043  RH  053%=      5-min Rain = 0
KST2 110643Z 34012KT 14/04 A2983 RMK A01 T01370043  RH  053%=      5-min Rain = 0
KST2 110644Z 34013KT 14/04 A2983 RMK A01 T01380043  RH  053%=      5-min Rain = 0
KST2 110645Z 34016KT 14/04 A2984 RMK A01 T01380043  RH  053%=      5-min Rain = 0
KST2 110646Z 34016KT 14/04 A2984 RMK A01 T01380044  RH  053%=      5-min Rain = 0
KST2 110647Z 34015KT 14/05 A2984 RMK A01 T01390045  RH  053%=      5-min Rain = 0
KST2 110648Z 35012KT 14/05 A2984 RMK A01 T01400045  RH  053%=      5-min Rain = 0
KST2 110649Z 35013KT 14/04 A2984 RMK A01 T01390044  RH  053%=      5-min Rain = 0
KST2 110650Z 35014KT 14/04 A2984 RMK A01 T01380044  RH  053%=      5-min Rain = 0
KST2 110651Z 35013KT 14/04 A2984 RMK A01 T01370044  RH  053%=      5-min Rain = 0
KST2 110652Z 35013KT 14/04 A2984 RMK A01 T01370044  RH  054%=      5-min Rain = 0
KST2 110653Z 36012KT 14/05 A2984 RMK A01 T01360045  RH  054%=      5-min Rain = 0
KST2 110654Z 36013KT 14/05 A2984 RMK A01 T01360045  RH  054%=      5-min Rain = 0
KST2 110655Z 00013KT 14/05 A2984 RMK A01 T01370046  RH  054%=      5-min Rain = 0
KST2 110656Z 00013KT 14/05 A2984 RMK A01 T01390046  RH  054%=      5-min Rain = 0
KST2 110657Z 00014KT 14/05 A2984 RMK A01 T01400046  RH  053%=      5-min Rain = 0
KST2 110658Z 01014KT 14/05 A2984 RMK A01 T01420047  RH  053%=      5-min Rain = 0
KST2 110659Z 01015KT 14/05 A2984 RMK A01 T01430047  RH  052%=      5-min Rain = 0
KST2 110700Z 01015KT 15/05 A2984 RMK A01 T01450047  RH  052%=      5-min Rain = 0
KST2 110701Z 01014KT 15/05 A2984 RMK A01 T01450048  RH  052%=      5-min Rain = 0
KST2 110702Z 02013KT 15/05 A2984 RMK A01 T01460048  RH  052%=      5-min Rain = 0
KST2 110703Z 02013KT 15/05 A2984 RMK A01 T01460048  RH  052%=      5-min Rain = 0
KST2 110704Z 02013KT 15/05 A2984 RMK A01 T01460049  RH  052%=      5-min Rain = 0
KST2 110705Z 02014KT 15/05 A2984 RMK A01 T01460049  RH  052%=      5-min Rain = 0
KST2 110706Z 02014KT 15/05 A2985 RMK A01 T01460050  RH  053%=      5-min Rain = 0
KST2 110707Z 02013KT 15/05 A2984 RMK A01 T01460051  RH  053%=      5-min Rain = 0
KST2 110708Z 02014KT 15/05 A2984 RMK A01 T01460052  RH  053%=      5-min Rain = 0
KST2 110709Z 01013KT 15/05 A2984 RMK A01 T01460053  RH  054%=      5-min Rain = 0
KST2 110710Z 01013KT 15/06 A2985 RMK A01 T01460055  RH  054%=      5-min Rain = 0
KST2 110711Z 01013KT 15/06 A2985 RMK A01 T01450055  RH  055%=      5-min Rain = 0
KST2 110712Z 01012KT 15/06 A2985 RMK A01 T01450056  RH  055%=      5-min Rain = 0
KST2 110713Z 01013KT 14/06 A2985 RMK A01 T01440055  RH  055%=      5-min Rain = 0
KST2 110714Z 01012KT 14/06 A2984 RMK A01 T01440057  RH  056%=      5-min Rain = 0
KST2 110715Z 01012KT 14/06 A2984 RMK A01 T01430058  RH  056%=      5-min Rain = 0
KST2 110716Z 01012KT 14/06 A2984 RMK A01 T01420059  RH  057%=      5-min Rain = 0
KST2 110717Z 01013KT 14/06 A2985 RMK A01 T01420061  RH  058%=      5-min Rain = 0
KST2 110718Z 01012KT 14/06 A2985 RMK A01 T01430062  RH  059%=      5-min Rain = 0
KST2 110719Z 01013KT 14/06 A2985 RMK A01 T01420063  RH  059%=      5-min Rain = 0
KST2 110720Z 01012KT 14/07 A2985 RMK A01 T01420066  RH  060%=      5-min Rain = 0
KST2 110721Z 01013KT 14/07 A2985 RMK A01 T01420066  RH  060%=      5-min Rain = 0
KST2 110722Z 01012KT 14/07 A2985 RMK A01 T01420067  RH  061%=      5-min Rain = 0
KST2 110723Z 01012KT 14/07 A2985 RMK A01 T01420068  RH  061%=      5-min Rain = 0
KST2 110724Z 01012KT 14/07 A2985 RMK A01 T01420069  RH  062%=      5-min Rain = 0
KST2 110725Z 01012KT 14/07 A2986 RMK A01 T01410071  RH  063%=      5-min Rain = 0
KST2 110726Z 01012KT 14/07 A2986 RMK A01 T01410072  RH  063%=      5-min Rain = 0
KST2 110727Z 01012KT 14/07 A2986 RMK A01 T01410074  RH  064%=      5-min Rain = 0
KST2 110728Z 01013KT 14/08 A2986 RMK A01 T01410077  RH  065%=      5-min Rain = 0
KST2 110729Z 01013KT 14/08 A2986 RMK A01 T01410078  RH  066%=      5-min Rain = 0
KST2 110730Z 01013KT 14/08 A2986 RMK A01 T01420080  RH  067%=      5-min Rain = 0
KST2 110731Z 01012KT 14/08 A2986 RMK A01 T01420083  RH  068%=      5-min Rain = 0
KST2 110732Z 01015KT 14/09 A2986 RMK A01 T01420086  RH  069%=      5-min Rain = 0
KST2 110733Z 01014KT 14/09 A2986 RMK A01 T01430089  RH  070%=      5-min Rain = 0
KST2 110734Z 01014KT 14/09 A2986 RMK A01 T01440091  RH  070%=      5-min Rain = 0
KST2 110735Z 01014KT 15/09 A2986 RMK A01 T01450093  RH  071%=      5-min Rain = 0
KST2 110736Z 02016KT 15/10 A2987 RMK A01 T01460096  RH  072%=      5-min Rain = 0
KST2 110737Z 01016KT 15/10 A2987 RMK A01 T01470100  RH  073%=      5-min Rain = 0
KST2 110738Z 01016KT 15/10 A2987 RMK A01 T01490102  RH  073%=      5-min Rain = 0
KST2 110739Z 01017KT 15/10 A2987 RMK A01 T01500104  RH  074%=      5-min Rain = 0
KST2 110740Z 01019KT 15/11 A2987 RMK A01 T01520108  RH  075%=      5-min Rain = 0
KST2 110741Z 02018KT 15/11 A2987 RMK A01 T01540109  RH  075%=      5-min Rain = 0
KST2 110742Z 01018KT 15/11 A2987 RMK A01 T01540110  RH  075%=      5-min Rain = 0
KST2 110743Z 02016KT 16/11 A2987 RMK A01 T01550111  RH  075%=      5-min Rain = 0
KST2 110744Z 02017KT 16/11 A2987 RMK A01 T01560112  RH  075%=      5-min Rain = 0
KST2 110745Z 02017KT 16/11 A2987 RMK A01 T01560112  RH  075%=      5-min Rain = 0
KST2 110746Z 02018KT 16/11 A2987 RMK A01 T01570113  RH  075%=      5-min Rain = 0
KST2 110747Z 02019KT 16/11 A2987 RMK A01 T01570113  RH  075%=      5-min Rain = 0
KST2 110748Z 02021KT 16/12 A2988 RMK A01 T01580115  RH  075%=      5-min Rain = 0
KST2 110749Z 02019KT 16/12 A2987 RMK A01 T01590115  RH  075%=      5-min Rain = 0
KST2 110750Z 02019KT 16/12 A2987 RMK A01 T01600115  RH  075%=      5-min Rain = 0
KST2 110751Z 02020KT 16/12 A2987 RMK A01 T01590115  RH  075%=      5-min Rain = 0
KST2 110752Z 02018KT 16/12 A2987 RMK A01 T01600116  RH  075%=      5-min Rain = 0
KST2 110753Z 02018KT 16/12 A2987 RMK A01 T01600116  RH  075%=      5-min Rain = 0
KST2 110754Z 02018KT 16/12 A2987 RMK A01 T01600115  RH  075%=      5-min Rain = 0
KST2 110755Z 02017KT 16/12 A2987 RMK A01 T01600116  RH  075%=      5-min Rain = 0
KST2 110756Z 02018G24KT 16/12 A2987 RMK A01 T01600116  RH  075%=      5-min Rain = 0
KST2 110757Z 02021KT 16/12 A2987 RMK A01 T01600116  RH  075%=      5-min Rain = 0
KST2 110758Z 02020KT 16/12 A2987 RMK A01 T01600116  RH  075%=      5-min Rain = 0
KST2 110759Z 02019KT 16/12 A2987 RMK A01 T01600116  RH  075%=      5-min Rain = 0
KST2 110800Z 02020KT 16/12 A2987 RMK A01 T01600116  RH  075%=      5-min Rain = 0
KST2 110801Z 02019KT 16/12 A2988 RMK A01 T01610116  RH  075%=      5-min Rain = 0
KST2 110802Z 02017KT 16/12 A2988 RMK A01 T01610116  RH  075%=      5-min Rain = 0
KST2 110803Z 02017KT 16/12 A2988 RMK A01 T01610116  RH  075%=      5-min Rain = 0
KST2 110804Z 02017KT 16/12 A2988 RMK A01 T01600116  RH  075%=      5-min Rain = 0
KST2 110805Z 02018KT 16/12 A2988 RMK A01 T01600115  RH  075%=      5-min Rain = 0
KST2 110806Z 02020KT 16/12 A2988 RMK A01 T01600116  RH  075%=      5-min Rain = 0
KST2 110807Z 02020KT 16/12 A2988 RMK A01 T01600116  RH  075%=      5-min Rain = 0
KST2 110808Z 02020KT 16/12 A2988 RMK A01 T01600115  RH  075%=      5-min Rain = 0
KST2 110809Z 02020KT 16/12 A2988 RMK A01 T01600116  RH  075%=      5-min Rain = 0
KST2 110810Z 02019KT 16/12 A2988 RMK A01 T01600115  RH  075%=      5-min Rain = 0
KST2 110811Z 02017KT 16/12 A2988 RMK A01 T01600115  RH  075%=      5-min Rain = 0
KST2 110812Z 02020KT 16/12 A2988 RMK A01 T01600116  RH  075%=      5-min Rain = 0
KST2 110813Z 02019KT 16/12 A2988 RMK A01 T01600116  RH  075%=      5-min Rain = 0
KST2 110814Z 02019KT 16/12 A2989 RMK A01 T01600116  RH  075%=      5-min Rain = 0
KST2 110815Z 01017KT 16/12 A2989 RMK A01 T01600116  RH  075%=      5-min Rain = 0
KST2 110816Z 02020KT 16/12 A2989 RMK A01 T01600116  RH  075%=      5-min Rain = 0
KST2 110817Z 02019KT 16/12 A2989 RMK A01 T01600116  RH  075%=      5-min Rain = 0
KST2 110818Z 02017KT 16/12 A2989 RMK A01 T01600116  RH  075%=      5-min Rain = 0
KST2 110819Z 01018KT 16/12 A2989 RMK A01 T01600116  RH  075%=      5-min Rain = 0
KST2 110820Z 01018KT 16/12 A2989 RMK A01 T01600116  RH  075%=      5-min Rain = 0
KST2 110821Z 01018KT 16/12 A2989 RMK A01 T01590115  RH  075%=      5-min Rain = 0
KST2 110822Z 02018KT 16/12 A2989 RMK A01 T01600115  RH  075%=      5-min Rain = 0
KST2 110823Z 02016KT 16/12 A2989 RMK A01 T01600115  RH  075%=      5-min Rain = 0
KST2 110824Z 01016KT 16/12 A2989 RMK A01 T01590115  RH  075%=      5-min Rain = 0
KST2 110825Z 02018KT 16/12 A2989 RMK A01 T01590115  RH  075%=      5-min Rain = 0
KST2 110826Z 02018KT 16/12 A2989 RMK A01 T01590115  RH  075%=      5-min Rain = 0
KST2 110827Z 01015KT 16/11 A2989 RMK A01 T01590114  RH  075%=      5-min Rain = 0
KST2 110828Z 01016KT 16/11 A2989 RMK A01 T01590114  RH  075%=      5-min Rain = 0
KST2 110829Z 01018KT 16/11 A2989 RMK A01 T01580114  RH  075%=      5-min Rain = 0
KST2 110830Z 01017KT 16/12 A2989 RMK A01 T01590115  RH  075%=      5-min Rain = 0
KST2 110831Z 01019KT 16/12 A299 RMK A01 T01590115  RH  075%=      5-min Rain = 0
KST2 110832Z 01018KT 16/12 A299 RMK A01 T01600115  RH  075%=      5-min Rain = 0
KST2 110833Z 00017KT 16/12 A299 RMK A01 T01600115  RH  074%=      5-min Rain = 0
KST2 110834Z 00020KT 16/12 A299 RMK A01 T01600115  RH  075%=      5-min Rain = 0
KST2 110835Z 01019KT 16/12 A299 RMK A01 T01590115  RH  075%=      5-min Rain = 0
KST2 110836Z 01018KT 16/12 A299 RMK A01 T01600115  RH  075%=      5-min Rain = 0
KST2 110837Z 01019KT 16/12 A299 RMK A01 T01600115  RH  075%=      5-min Rain = 0
KST2 110838Z 01021KT 16/12 A2991 RMK A01 T01600116  RH  075%=      5-min Rain = 0
KST2 110839Z 01021KT 16/12 A2991 RMK A01 T01610116  RH  075%=      5-min Rain = 0
KST2 110840Z 01019KT 16/12 A2991 RMK A01 T01610116  RH  075%=      5-min Rain = 0
KST2 110841Z 01018KT 16/12 A299 RMK A01 T01610116  RH  075%=      5-min Rain = 0
KST2 110842Z 01019KT 16/12 A299 RMK A01 T01600116  RH  075%=      5-min Rain = 0
KST2 110843Z 01017KT 16/12 A299 RMK A01 T01600116  RH  075%=      5-min Rain = 0
KST2 110844Z 01020G26KT 16/12 A2991 RMK A01 T01600116  RH  075%=      5-min Rain = 0
KST2 110845Z 01020KT 16/12 A2991 RMK A01 T01600117  RH  075%=      5-min Rain = 0
KST2 110846Z 01021KT 16/12 A2991 RMK A01 T01600117  RH  075%=      5-min Rain = 0
KST2 110847Z 00019KT 16/12 A2991 RMK A01 T01610117  RH  075%=      5-min Rain = 0
KST2 110848Z 00017KT 16/12 A2991 RMK A01 T01600116  RH  075%=      5-min Rain = 0
KST2 110849Z 01018KT 16/12 A2991 RMK A01 T01600116  RH  075%=      5-min Rain = 0
KST2 110850Z 01019KT 16/12 A2991 RMK A01 T01600116  RH  075%=      5-min Rain = 0
KST2 110851Z 01020KT 16/12 A2991 RMK A01 T01600116  RH  075%=      5-min Rain = 0
KST2 110852Z 00022G27KT 16/12 A2991 RMK A01 T01600116  RH  075%=      5-min Rain = 0
KST2 110853Z 01022G28KT 16/12 A2991 RMK A01 T01600115  RH  074%=      5-min Rain = 0
KST2 110854Z 01022KT 16/11 A2991 RMK A01 T01600114  RH  074%=      5-min Rain = 0
KST2 110855Z 01019KT 16/11 A2991 RMK A01 T01600114  RH  074%=      5-min Rain = 0
KST2 110856Z 00021G26KT 16/11 A2991 RMK A01 T01600114  RH  074%=      5-min Rain = 0
KST2 110857Z 00023KT 16/11 A2991 RMK A01 T01600113  RH  073%=      5-min Rain = 0
KST2 110858Z 00022KT 16/11 A2991 RMK A01 T01600112  RH  073%=      5-min Rain = 0
KST2 110859Z 00020KT 16/11 A2992 RMK A01 T01600111  RH  073%=      5-min Rain = 0
KST2 110900Z 00023G30KT 16/11 A2992 RMK A01 T01610111  RH  072%=      5-min Rain = 0
KST2 110901Z 00022G27KT 16/11 A2992 RMK A01 T01600108  RH  071%=      5-min Rain = 0
KST2 110902Z 00021KT 16/11 A2992 RMK A01 T01610107  RH  070%=      5-min Rain = 0
KST2 110903Z 00023G28KT 16/11 A2992 RMK A01 T01610106  RH  070%=      5-min Rain = 0
KST2 110904Z 01025KT 16/10 A2992 RMK A01 T01600102  RH  068%=      5-min Rain = 0
KST2 110905Z 00021KT 16/10 A2992 RMK A01 T01610100  RH  067%=      5-min Rain = 0
KST2 110906Z 01025G30KT 16/10 A2993 RMK A01 T01600095  RH  065%=      5-min Rain = 0
KST2 110907Z 01029KT 16/08 A2993 RMK A01 T01600084  RH  061%=      5-min Rain = 0
KST2 110908Z 01024G30KT 16/08 A2993 RMK A01 T01600080  RH  059%=      5-min Rain = 0
KST2 110909Z 01027KT 16/08 A2993 RMK A01 T01600079  RH  059%=      5-min Rain = 0
KST2 110910Z 01027KT 16/08 A2993 RMK A01 T01600076  RH  058%=      5-min Rain = 0
KST2 110911Z 01027G33KT 16/07 A2993 RMK A01 T01590071  RH  056%=      5-min Rain = 0
KST2 110912Z 01028G34KT 16/07 A2993 RMK A01 T01590067  RH  055%=      5-min Rain = 0
KST2 110913Z 00028KT 16/06 A2993 RMK A01 T01580062  RH  053%=      5-min Rain = 0
KST2 110914Z 01027G32KT 16/06 A2993 RMK A01 T01570061  RH  053%=      5-min Rain = 0
KST2 110915Z 01030G35KT 16/06 A2993 RMK A01 T01560059  RH  052%=      5-min Rain = 0
KST2 110916Z 00029KT 16/06 A2993 RMK A01 T01560055  RH  051%=      5-min Rain = 0
KST2 110917Z 01027G32KT 16/05 A2993 RMK A01 T01550054  RH  051%=      5-min Rain = 0
KST2 110918Z 01028G34KT 16/05 A2993 RMK A01 T01550053  RH  051%=      5-min Rain = 0
KST2 110919Z 01025G30KT 15/05 A2993 RMK A01 T01540053  RH  051%=      5-min Rain = 0
KST2 110920Z 01026KT 15/05 A2993 RMK A01 T01530052  RH  051%=      5-min Rain = 0
KST2 110921Z 01025G30KT 15/05 A2993 RMK A01 T01530050  RH  050%=      5-min Rain = 0
KST2 110922Z 01027G32KT 15/05 A2994 RMK A01 T01520048  RH  050%=      5-min Rain = 0
KST2 110923Z 01026KT 15/04 A2993 RMK A01 T01520044  RH  049%=      5-min Rain = 0
KST2 110924Z 01026G31KT 15/04 A2993 RMK A01 T01500044  RH  049%=      5-min Rain = 0
KST2 110925Z 01026KT 15/04 A2993 RMK A01 T01500042  RH  049%=      5-min Rain = 0
KST2 110926Z 01025G30KT 15/04 A2993 RMK A01 T01490041  RH  048%=      5-min Rain = 0
KST2 110927Z 01025KT 15/04 A2993 RMK A01 T01490040  RH  048%=      5-min Rain = 0
KST2 110928Z 02031KT 15/04 A2994 RMK A01 T01490038  RH  048%=      5-min Rain = 0
KST2 110929Z 01027G32KT 15/04 A2993 RMK A01 T01480036  RH  047%=      5-min Rain = 0
KST2 110930Z 01025G30KT 15/04 A2993 RMK A01 T01480036  RH  047%=      5-min Rain = 0
KST2 110931Z 01027KT 15/03 A2993 RMK A01 T01470034  RH  047%=      5-min Rain = 0
KST2 110932Z 01028KT 15/03 A2993 RMK A01 T01470033  RH  046%=      5-min Rain = 0
KST2 110933Z 01027KT 15/03 A2993 RMK A01 T01470032  RH  046%=      5-min Rain = 0
KST2 110934Z 01027G33KT 15/03 A2993 RMK A01 T01470031  RH  046%=      5-min Rain = 0
KST2 110935Z 01029KT 15/03 A2994 RMK A01 T01470030  RH  046%=      5-min Rain = 0
KST2 110936Z 01028KT 15/03 A2994 RMK A01 T01460029  RH  045%=      5-min Rain = 0
KST2 110937Z 01025G30KT 15/03 A2994 RMK A01 T01460029  RH  045%=      5-min Rain = 0
KST2 110938Z 01026KT 15/03 A2994 RMK A01 T01450028  RH  045%=      5-min Rain = 0
KST2 110939Z 01028KT 15/03 A2994 RMK A01 T01450027  RH  045%=      5-min Rain = 0
KST2 110940Z 01025G30KT 15/03 A2994 RMK A01 T01450027  RH  045%=      5-min Rain = 0
KST2 110941Z 01024G29KT 14/03 A2994 RMK A01 T01440027  RH  045%=      5-min Rain = 0
KST2 110942Z 01023KT 14/03 A2994 RMK A01 T01440026  RH  045%=      5-min Rain = 0
KST2 110943Z 01023KT 14/03 A2994 RMK A01 T01430027  RH  045%=      5-min Rain = 0
KST2 110944Z 01022KT 14/03 A2994 RMK A01 T01430026  RH  045%=      5-min Rain = 0
KST2 110945Z 01021KT 14/03 A2995 RMK A01 T01420026  RH  045%=      5-min Rain = 0
KST2 110946Z 01024KT 14/03 A2995 RMK A01 T01420026  RH  045%=      5-min Rain = 0
KST2 110947Z 01025KT 14/03 A2995 RMK A01 T01420025  RH  045%=      5-min Rain = 0
KST2 110948Z 01020KT 14/03 A2995 RMK A01 T01420025  RH  045%=      5-min Rain = 0
KST2 110949Z 01025KT 14/03 A2995 RMK A01 T01420025  RH  045%=      5-min Rain = 0
KST2 110950Z 01024KT 14/03 A2995 RMK A01 T01420025  RH  045%=      5-min Rain = 0
KST2 110951Z 01022KT 14/02 A2995 RMK A01 T01420024  RH  045%=      5-min Rain = 0
KST2 110952Z 02025KT 14/02 A2995 RMK A01 T01410024  RH  045%=      5-min Rain = 0
KST2 110953Z 01024G32KT 14/03 A2995 RMK A01 T01420025  RH  045%=      5-min Rain = 0
KST2 110954Z 01026KT 14/02 A2995 RMK A01 T01410024  RH  045%=      5-min Rain = 0
KST2 110955Z 02022KT 14/02 A2995 RMK A01 T01420024  RH  045%=      5-min Rain = 0
KST2 110956Z 01026KT 14/03 A2996 RMK A01 T01410025  RH  045%=      5-min Rain = 0
KST2 110957Z 01022KT 14/03 A2996 RMK A01 T01410025  RH  045%=      5-min Rain = 0
KST2 110958Z 01025KT 14/02 A2996 RMK A01 T01410024  RH  045%=      5-min Rain = 0
KST2 110959Z 01024KT 14/02 A2996 RMK A01 T01410024  RH  045%=      5-min Rain = 0
KST2 111000Z 01026KT 14/03 A2996 RMK A01 T01410025  RH  045%=      5-min Rain = 0
KST2 111001Z 02024G32KT 14/03 A2996 RMK A01 T01410026  RH  046%=      5-min Rain = 0
KST2 111002Z 02028G33KT 14/03 A2997 RMK A01 T01410026  RH  046%=      5-min Rain = 0
KST2 111003Z 01027KT 14/03 A2996 RMK A01 T01410025  RH  046%=      5-min Rain = 0
KST2 111004Z 01026KT 14/03 A2997 RMK A01 T01410025  RH  046%=      5-min Rain = 0
KST2 111005Z 01023KT 14/03 A2997 RMK A01 T01410026  RH  046%=      5-min Rain = 0
KST2 111006Z 01026G33KT 14/03 A2997 RMK A01 T01410025  RH  046%=      5-min Rain = 0
KST2 111007Z 02025G31KT 14/03 A2997 RMK A01 T01410025  RH  046%=      5-min Rain = 0
KST2 111008Z 02026G33KT 14/03 A2997 RMK A01 T01410025  RH  046%=      5-min Rain = 0
KST2 111009Z 02026G34KT 14/02 A2997 RMK A01 T01410024  RH  045%=      5-min Rain = 0
KST2 111010Z 02024KT 14/02 A2997 RMK A01 T01410024  RH  045%=      5-min Rain = 0
KST2 111011Z 02023KT 14/02 A2997 RMK A01 T01400024  RH  045%=      5-min Rain = 0
KST2 111012Z 02026G32KT 14/02 A2997 RMK A01 T01400024  RH  045%=      5-min Rain = 0
KST2 111013Z 02023G31KT 14/02 A2997 RMK A01 T01400023  RH  045%=      5-min Rain = 0
KST2 111014Z 02022KT 14/02 A2997 RMK A01 T01390024  RH  046%=      5-min Rain = 0
KST2 111015Z 02023G29KT 14/02 A2997 RMK A01 T01390023  RH  046%=      5-min Rain = 0
KST2 111016Z 02026KT 14/02 A2997 RMK A01 T01390022  RH  045%=      5-min Rain = 0
KST2 111017Z 02029G36KT 14/02 A2997 RMK A01 T01400021  RH  045%=      5-min Rain = 0
KST2 111018Z 03029KT 14/02 A2997 RMK A01 T01400020  RH  044%=      5-min Rain = 0
KST2 111019Z 03027KT 14/02 A2997 RMK A01 T01400020  RH  044%=      5-min Rain = 0
KST2 111020Z 02026KT 14/02 A2997 RMK A01 T01400020  RH  044%=      5-min Rain = 0
KST2 111021Z 02028KT 14/02 A2997 RMK A01 T01400020  RH  044%=      5-min Rain = 0
KST2 111022Z 03027KT 14/02 A2997 RMK A01 T01400019  RH  044%=      5-min Rain = 0
KST2 111023Z 02028KT 14/02 A2997 RMK A01 T01400019  RH  044%=      5-min Rain = 0
KST2 111024Z 02027KT 14/02 A2998 RMK A01 T01400019  RH  044%=      5-min Rain = 0
KST2 111025Z 03026G31KT 14/02 A2998 RMK A01 T01400019  RH  044%=      5-min Rain = 0
KST2 111026Z 02026G31KT 14/02 A2998 RMK A01 T01400018  RH  044%=      5-min Rain = 0
KST2 111027Z 02024G29KT 14/02 A2998 RMK A01 T01400018  RH  044%=      5-min Rain = 0
KST2 111028Z 02028G34KT 14/02 A2998 RMK A01 T01400018  RH  044%=      5-min Rain = 0
KST2 111029Z 03031G36KT 14/02 A2998 RMK A01 T01390017  RH  043%=      5-min Rain = 0
KST2 111030Z 02026KT 14/02 A2998 RMK A01 T01400017  RH  043%=      5-min Rain = 0
KST2 111031Z 02026KT 14/02 A2999 RMK A01 T01400017  RH  043%=      5-min Rain = 0
KST2 111032Z 03025KT 14/02 A2999 RMK A01 T01400017  RH  043%=      5-min Rain = 0
KST2 111033Z 02025G30KT 14/02 A2999 RMK A01 T01390017  RH  044%=      5-min Rain = 0
KST2 111034Z 01028G35KT 14/02 A2999 RMK A01 T01390016  RH  043%=      5-min Rain = 0
KST2 111035Z 02023G28KT 14/02 A2999 RMK A01 T01390016  RH  043%=      5-min Rain = 0
KST2 111036Z 02027KT 14/02 A2999 RMK A01 T01390016  RH  043%=      5-min Rain = 0
KST2 111037Z 02025KT 14/02 A2999 RMK A01 T01390016  RH  043%=      5-min Rain = 0
KST2 111038Z 02025KT 14/02 A2999 RMK A01 T01380015  RH  043%=      5-min Rain = 0
KST2 111039Z 02024G29KT 14/02 A2999 RMK A01 T01380015  RH  043%=      5-min Rain = 0
KST2 111040Z 02024KT 14/02 A2999 RMK A01 T01380015  RH  043%=      5-min Rain = 0
KST2 111041Z 03024KT 14/02 A2999 RMK A01 T01380015  RH  043%=      5-min Rain = 0
KST2 111042Z 02020G25KT 14/01 A2999 RMK A01 T01380014  RH  043%=      5-min Rain = 0
KST2 111043Z 03024G29KT 14/02 A2999 RMK A01 T01380015  RH  043%=      5-min Rain = 0
KST2 111044Z 03025KT 14/01 A2999 RMK A01 T01380014  RH  043%=      5-min Rain = 0
KST2 111045Z 02022G27KT 14/02 A2999 RMK A01 T01380015  RH  043%=      5-min Rain = 0
KST2 111046Z 02025KT 14/02 A2999 RMK A01 T01380015  RH  043%=      5-min Rain = 0
KST2 111047Z 02025G31KT 14/01 A30 RMK A01 T01380014  RH  043%=      5-min Rain = 0
KST2 111048Z 02025KT 14/01 A2999 RMK A01 T01380014  RH  043%=      5-min Rain = 0
KST2 111049Z 02023G29KT 14/01 A30 RMK A01 T01380014  RH  043%=      5-min Rain = 0
KST2 111050Z 03027KT 14/01 A30 RMK A01 T01370014  RH  043%=      5-min Rain = 0
KST2 111051Z 03027KT 14/01 A30 RMK A01 T01380014  RH  043%=      5-min Rain = 0
KST2 111052Z 02026G31KT 14/01 A30 RMK A01 T01380013  RH  043%=      5-min Rain = 0
KST2 111053Z 02024G30KT 14/01 A3001 RMK A01 T01380013  RH  043%=      5-min Rain = 0
KST2 111054Z 03024KT 14/01 A3001 RMK A01 T01380013  RH  043%=      5-min Rain = 0
KST2 111055Z 03023KT 14/01 A3001 RMK A01 T01380014  RH  043%=      5-min Rain = 0
KST2 111056Z 02024KT 14/01 A3001 RMK A01 T01380013  RH  043%=      5-min Rain = 0
KST2 111057Z 03024KT 14/01 A3001 RMK A01 T01370013  RH  043%=      5-min Rain = 0
KST2 111058Z 02025KT 14/01 A3001 RMK A01 T01370013  RH  043%=      5-min Rain = 0
KST2 111059Z 02023G28KT 14/01 A3001 RMK A01 T01370013  RH  043%=      5-min Rain = 0
KST2 111100Z 02025KT 14/01 A3002 RMK A01 T01370013  RH  043%=      5-min Rain = 0
KST2 111101Z 02023G29KT 14/01 A3001 RMK A01 T01370012  RH  043%=      5-min Rain = 0
KST2 111102Z 03022G27KT 14/01 A3001 RMK A01 T01370013  RH  043%=      5-min Rain = 0
KST2 111103Z 02022KT 14/01 A3002 RMK A01 T01360012  RH  043%=      5-min Rain = 0
KST2 111104Z 02022KT 14/01 A3002 RMK A01 T01360012  RH  043%=      5-min Rain = 0
KST2 111105Z 02020KT 14/01 A3002 RMK A01 T01360012  RH  043%=      5-min Rain = 0
KST2 111106Z 02019KT 14/01 A3002 RMK A01 T01350012  RH  043%=      5-min Rain = 0
KST2 111107Z 02021KT 14/01 A3002 RMK A01 T01350012  RH  043%=      5-min Rain = 0
KST2 111108Z 02019KT 14/01 A3002 RMK A01 T01350012  RH  043%=      5-min Rain = 0
KST2 111109Z 02018KT 14/01 A3002 RMK A01 T01350012  RH  043%=      5-min Rain = 0
KST2 111110Z 03020KT 13/01 A3002 RMK A01 T01340012  RH  043%=      5-min Rain = 0
KST2 111111Z 03022KT 13/01 A3002 RMK A01 T01340011  RH  043%=      5-min Rain = 0
KST2 111112Z 02020KT 14/01 A3002 RMK A01 T01350011  RH  043%=      5-min Rain = 0
KST2 111113Z 02022KT 14/01 A3002 RMK A01 T01350011  RH  043%=      5-min Rain = 0
KST2 111114Z 03020G25KT 14/01 A3002 RMK A01 T01350010  RH  043%=      5-min Rain = 0
KST2 111115Z 03022KT 14/01 A3002 RMK A01 T01350010  RH  043%=      5-min Rain = 0
KST2 111116Z 02022G27KT 14/01 A3002 RMK A01 T01350010  RH  043%=      5-min Rain = 0
KST2 111117Z 02020G25KT 14/01 A3002 RMK A01 T01350011  RH  043%=      5-min Rain = 0
KST2 111118Z 02022KT 14/01 A3003 RMK A01 T01350010  RH  043%=      5-min Rain = 0
KST2 111119Z 02020KT 14/01 A3003 RMK A01 T01350010  RH  042%=      5-min Rain = 0
KST2 111120Z 02020KT 14/01 A3003 RMK A01 T01350010  RH  042%=      5-min Rain = 0
KST2 111121Z 03022G28KT 14/01 A3003 RMK A01 T01350010  RH  042%=      5-min Rain = 0
KST2 111122Z 03019KT 14/01 A3003 RMK A01 T01350010  RH  042%=      5-min Rain = 0
KST2 111123Z 02018KT 14/01 A3003 RMK A01 T01350010  RH  043%=      5-min Rain = 0
KST2 111124Z 03022G27KT 14/01 A3003 RMK A01 T01350010  RH  043%=      5-min Rain = 0
KST2 111125Z 02022KT 14/01 A3003 RMK A01 T01350010  RH  042%=      5-min Rain = 0
KST2 111126Z 02023KT 14/01 A3003 RMK A01 T01350009  RH  042%=      5-min Rain = 0
KST2 111127Z 02022KT 14/01 A3003 RMK A01 T01350009  RH  042%=      5-min Rain = 0
KST2 111128Z 02022KT 14/01 A3003 RMK A01 T01350009  RH  042%=      5-min Rain = 0
KST2 111129Z 02019KT 14/01 A3003 RMK A01 T01350009  RH  042%=      5-min Rain = 0
KST2 111130Z 03019KT 14/01 A3003 RMK A01 T01350010  RH  042%=      5-min Rain = 0
KST2 111131Z 02017KT 14/01 A3003 RMK A01 T01350010  RH  042%=      5-min Rain = 0
KST2 111132Z 03019KT 13/01 A3003 RMK A01 T01340010  RH  043%=      5-min Rain = 0
KST2 111133Z 02020KT 13/01 A3003 RMK A01 T01340010  RH  042%=      5-min Rain = 0
KST2 111134Z 02020KT 14/01 A3003 RMK A01 T01350009  RH  042%=      5-min Rain = 0
KST2 111135Z 03020KT 14/01 A3004 RMK A01 T01350009  RH  042%=      5-min Rain = 0
KST2 111136Z 02018KT 14/01 A3004 RMK A01 T01350009  RH  042%=      5-min Rain = 0
KST2 111137Z 02019KT 14/01 A3004 RMK A01 T01350010  RH  042%=      5-min Rain = 0
KST2 111138Z 02023KT 14/01 A3004 RMK A01 T01350009  RH  042%=      5-min Rain = 0
KST2 111139Z 02022KT 14/01 A3004 RMK A01 T01360009  RH  042%=      5-min Rain = 0
KST2 111140Z 02018KT 14/01 A3004 RMK A01 T01360009  RH  042%=      5-min Rain = 0
KST2 111141Z 02019KT 14/01 A3004 RMK A01 T01360009  RH  042%=      5-min Rain = 0
KST2 111142Z 02021KT 14/01 A3004 RMK A01 T01360009  RH  042%=      5-min Rain = 0
KST2 111143Z 02019KT 14/01 A3004 RMK A01 T01360008  RH  042%=      5-min Rain = 0
KST2 111144Z 03021KT 14/01 A3004 RMK A01 T01360008  RH  042%=      5-min Rain = 0
KST2 111145Z 02020KT 14/01 A3004 RMK A01 T01360008  RH  042%=      5-min Rain = 0
KST2 111146Z 02019KT 14/01 A3004 RMK A01 T01360008  RH  042%=      5-min Rain = 0
KST2 111147Z 02019KT 14/01 A3004 RMK A01 T01360009  RH  042%=      5-min Rain = 0
KST2 111148Z 02021KT 14/01 A3004 RMK A01 T01360008  RH  042%=      5-min Rain = 0
KST2 111149Z 02020KT 14/01 A3004 RMK A01 T01360008  RH  041%=      5-min Rain = 0
KST2 111150Z 02022KT 14/01 A3004 RMK A01 T01370008  RH  041%=      5-min Rain = 0
KST2 111151Z 03021KT 14/01 A3004 RMK A01 T01360007  RH  041%=      5-min Rain = 0
KST2 111152Z 02019KT 14/01 A3004 RMK A01 T01370007  RH  041%=      5-min Rain = 0
KST2 111153Z 02019KT 14/01 A3004 RMK A01 T01370008  RH  041%=      5-min Rain = 0
KST2 111154Z 02019KT 14/01 A3004 RMK A01 T01370008  RH  041%=      5-min Rain = 0
KST2 111155Z 02017KT 14/01 A3005 RMK A01 T01360008  RH  041%=      5-min Rain = 0
KST2 111156Z 03019KT 14/01 A3005 RMK A01 T01360008  RH  041%=      5-min Rain = 0
KST2 111157Z 02017KT 14/01 A3005 RMK A01 T01360008  RH  041%=      5-min Rain = 0
KST2 111158Z 03019KT 14/01 A3005 RMK A01 T01360008  RH  042%=      5-min Rain = 0
KST2 111159Z 03020KT 14/01 A3005 RMK A01 T01360007  RH  041%=      5-min Rain = 0
KST2 111200Z 02021KT 14/01 A3005 RMK A01 T01360007  RH  041%=      5-min Rain = 0
KST2 111201Z 02018KT 14/01 A3005 RMK A01 T01360007  RH  041%=      5-min Rain = 0
KST2 111202Z 02018KT 14/01 A3005 RMK A01 T01360007  RH  041%=      5-min Rain = 0
KST2 111203Z 02018KT 14/01 A3005 RMK A01 T01360007  RH  041%=      5-min Rain = 0
KST2 111204Z 02018KT 14/01 A3005 RMK A01 T01360007  RH  041%=      5-min Rain = 0
KST2 111205Z 02019KT 14/01 A3005 RMK A01 T01360007  RH  041%=      5-min Rain = 0
KST2 111206Z 02019KT 14/01 A3005 RMK A01 T01360006  RH  041%=      5-min Rain = 0
KST2 111207Z 02019KT 14/01 A3005 RMK A01 T01360006  RH  041%=      5-min Rain = 0
KST2 111208Z 02018KT 14/01 A3005 RMK A01 T01360006  RH  041%=      5-min Rain = 0
KST2 111209Z 02017KT 14/01 A3005 RMK A01 T01360006  RH  041%=      5-min Rain = 0
KST2 111210Z 02015KT 14/01 A3005 RMK A01 T01350007  RH  041%=      5-min Rain = 0
KST2 111211Z 02017KT 13/01 A3005 RMK A01 T01340006  RH  042%=      5-min Rain = 0
KST2 111212Z 02017KT 13/01 A3005 RMK A01 T01340006  RH  041%=      5-min Rain = 0
KST2 111213Z 02016KT 13/01 A3005 RMK A01 T01340006  RH  041%=      5-min Rain = 0
KST2 111214Z 02017KT 13/01 A3006 RMK A01 T01340005  RH  041%=      5-min Rain = 0
KST2 111215Z 02016KT 13/01 A3006 RMK A01 T01340006  RH  041%=      5-min Rain = 0
KST2 111216Z 02017KT 13/01 A3006 RMK A01 T01340005  RH  041%=      5-min Rain = 0
KST2 111217Z 01016KT 13/00 A3006 RMK A01 T01340004  RH  041%=      5-min Rain = 0
KST2 111218Z 02019KT 13/00 A3006 RMK A01 T01340003  RH  041%=      5-min Rain = 0
KST2 111219Z 02019KT 13/00 A3006 RMK A01 T01340002  RH  040%=      5-min Rain = 0
KST2 111220Z 02019KT 13/00 A3006 RMK A01 T01340001  RH  040%=      5-min Rain = 0
KST2 111221Z 02019KT 14/00 A3006 RMK A01 T01350001  RH  040%=      5-min Rain = 0
KST2 111222Z 02018KT 14/00 A3006 RMK A01 T013500-0  RH  040%=      5-min Rain = 0
KST2 111223Z 02018KT 14/00 A3006 RMK A01 T013500-0  RH  040%=      5-min Rain = 0
KST2 111224Z 02017KT 13/00 A3006 RMK A01 T01340000  RH  040%=      5-min Rain = 0
KST2 111225Z 02019KT 13/00 A3006 RMK A01 T013400-0  RH  040%=      5-min Rain = 0
KST2 111226Z 01018KT 13/M00 A3006 RMK A01 T01341001  RH  039%=      5-min Rain = 0
KST2 111227Z 01020KT 13/M00 A3006 RMK A01 T01341002  RH  039%=      5-min Rain = 0
KST2 111228Z 02018KT 13/M00 A3006 RMK A01 T01341003  RH  039%=      5-min Rain = 0
KST2 111229Z 02018KT 13/M00 A3006 RMK A01 T01341002  RH  039%=      5-min Rain = 0
KST2 111230Z 02019KT 13/M00 A3006 RMK A01 T01341002  RH  039%=      5-min Rain = 0
KST2 111231Z 02019KT 13/M00 A3006 RMK A01 T01341004  RH  039%=      5-min Rain = 0
KST2 111232Z 02019KT 13/M00 A3006 RMK A01 T01341003  RH  039%=      5-min Rain = 0
KST2 111233Z 02018KT 13/M00 A3006 RMK A01 T01341004  RH  039%=      5-min Rain = 0
KST2 111234Z 02020G25KT 13/M00 A3006 RMK A01 T01341004  RH  039%=      5-min Rain = 0
KST2 111235Z 02022KT 13/M01 A3006 RMK A01 T01341006  RH  038%=      5-min Rain = 0
KST2 111236Z 01025KT 13/M01 A3006 RMK A01 T01341006  RH  038%=      5-min Rain = 0
KST2 111237Z 02024KT 13/M01 A3006 RMK A01 T01341007  RH  038%=      5-min Rain = 0
KST2 111238Z 02022KT 13/M01 A3006 RMK A01 T01341008  RH  038%=      5-min Rain = 0
KST2 111239Z 02021KT 13/M01 A3006 RMK A01 T01341006  RH  038%=      5-min Rain = 0
KST2 111240Z 02021G27KT 13/M01 A3006 RMK A01 T01331006  RH  038%=      5-min Rain = 0
KST2 111241Z 02027G33KT 13/M01 A3006 RMK A01 T01321006  RH  038%=      5-min Rain = 0
KST2 111242Z 02026G31KT 13/M01 A3006 RMK A01 T01321007  RH  038%=      5-min Rain = 0
KST2 111243Z 02021G26KT 13/M01 A3006 RMK A01 T01321007  RH  038%=      5-min Rain = 0
KST2 111244Z 02023G28KT 13/M01 A3006 RMK A01 T01321007  RH  038%=      5-min Rain = 0
KST2 111245Z 02023KT 13/M01 A3006 RMK A01 T01311007  RH  039%=      5-min Rain = 0
KST2 111246Z 02023KT 13/M01 A3006 RMK A01 T01321006  RH  039%=      5-min Rain = 0
KST2 111247Z 02022KT 13/M01 A3006 RMK A01 T01311006  RH  039%=      5-min Rain = 0
KST2 111248Z 02021KT 13/M01 A3007 RMK A01 T01311006  RH  039%=      5-min Rain = 0
KST2 111249Z 02021KT 13/M01 A3007 RMK A01 T01311005  RH  039%=      5-min Rain = 0
KST2 111250Z 01019G24KT 13/M01 A3007 RMK A01 T01301005  RH  039%=      5-min Rain = 0
KST2 111251Z 01024KT 13/M01 A3007 RMK A01 T01301005  RH  039%=      5-min Rain = 0
KST2 111252Z 01023KT 13/M01 A3007 RMK A01 T01301005  RH  039%=      5-min Rain = 0
KST2 111253Z 01019KT 13/M01 A3008 RMK A01 T01301005  RH  040%=      5-min Rain = 0
KST2 111254Z 01018KT 13/M00 A3008 RMK A01 T01291004  RH  040%=      5-min Rain = 0
KST2 111255Z 01020KT 13/M00 A3008 RMK A01 T01291004  RH  040%=      5-min Rain = 0
KST2 111256Z 01020KT 13/M00 A3008 RMK A01 T01291004  RH  040%=      5-min Rain = 0
KST2 111257Z 01020KT 13/M00 A3008 RMK A01 T01291004  RH  040%=      5-min Rain = 0
KST2 111258Z 01020KT 13/M00 A3008 RMK A01 T01291004  RH  040%=      5-min Rain = 0
KST2 111259Z 01019KT 13/M00 A3008 RMK A01 T01291004  RH  040%=      5-min Rain = 0
KST2 111300Z 01021KT 13/M00 A3008 RMK A01 T01281004  RH  040%=      5-min Rain = 0
KST2 111301Z 01024KT 13/M00 A3009 RMK A01 T01281004  RH  040%=      5-min Rain = 0
KST2 111302Z 01020KT 13/M00 A3009 RMK A01 T01281004  RH  040%=      5-min Rain = 0
KST2 111303Z 01022KT 13/M00 A3009 RMK A01 T01271003  RH  040%=      5-min Rain = 0
KST2 111304Z 01021KT 13/M00 A3009 RMK A01 T01271004  RH  041%=      5-min Rain = 0
KST2 111305Z 01023KT 13/M00 A3009 RMK A01 T01271004  RH  040%=      5-min Rain = 0
KST2 111306Z 01022KT 13/M00 A3009 RMK A01 T01271004  RH  040%=      5-min Rain = 0
KST2 111307Z 01021KT 13/M00 A3009 RMK A01 T01271004  RH  040%=      5-min Rain = 0
KST2 111308Z 01022G28KT 13/M00 A3009 RMK A01 T01271004  RH  041%=      5-min Rain = 0
KST2 111309Z 01023KT 13/M00 A3009 RMK A01 T01261004  RH  040%=      5-min Rain = 0
KST2 111310Z 01020KT 13/M01 A3009 RMK A01 T01261005  RH  040%=      5-min Rain = 0
KST2 111311Z 01020KT 13/M00 A301 RMK A01 T01261004  RH  041%=      5-min Rain = 0
KST2 111312Z 01021KT 13/M00 A301 RMK A01 T01251004  RH  041%=      5-min Rain = 0
KST2 111313Z 01025KT 13/M01 A301 RMK A01 T01251005  RH  041%=      5-min Rain = 0
KST2 111314Z 01024KT 13/M01 A301 RMK A01 T01251006  RH  040%=      5-min Rain = 0
KST2 111315Z 01023G29KT 13/M01 A301 RMK A01 T01251005  RH  041%=      5-min Rain = 0
KST2 111316Z 02026KT 13/M01 A301 RMK A01 T01251006  RH  040%=      5-min Rain = 0
KST2 111317Z 01024KT 13/M01 A301 RMK A01 T01251006  RH  040%=      5-min Rain = 0
KST2 111318Z 01021KT 13/M01 A301 RMK A01 T01251006  RH  040%=      5-min Rain = 0
KST2 111319Z 01021KT 13/M01 A301 RMK A01 T01251005  RH  041%=      5-min Rain = 0
KST2 111320Z 01019KT 13/M01 A301 RMK A01 T01251005  RH  041%=      5-min Rain = 0
KST2 111321Z 02022KT 13/M01 A301 RMK A01 T01251005  RH  041%=      5-min Rain = 0
KST2 111322Z 02026G31KT 13/M01 A3011 RMK A01 T01251006  RH  040%=      5-min Rain = 0
KST2 111323Z 02023KT 13/M01 A3011 RMK A01 T01251007  RH  040%=      5-min Rain = 0
KST2 111324Z 02024G29KT 13/M01 A3011 RMK A01 T01251006  RH  040%=      5-min Rain = 0
KST2 111325Z 02022KT 13/M01 A3011 RMK A01 T01251007  RH  040%=      5-min Rain = 0
KST2 111326Z 02019KT 13/M01 A3011 RMK A01 T01251006  RH  041%=      5-min Rain = 0
KST2 111327Z 01019KT 12/M01 A3011 RMK A01 T01241005  RH  041%=      5-min Rain = 0
KST2 111328Z 01020KT 12/M00 A3011 RMK A01 T01241004  RH  041%=      5-min Rain = 0
KST2 111329Z 01023KT 12/M01 A3011 RMK A01 T01241005  RH  041%=      5-min Rain = 0
KST2 111330Z 01022KT 12/M01 A3011 RMK A01 T01241005  RH  041%=      5-min Rain = 0
KST2 111331Z 02023KT 12/M01 A3011 RMK A01 T01241005  RH  041%=      5-min Rain = 0
KST2 111332Z 02026KT 12/M01 A3012 RMK A01 T01231007  RH  041%=      5-min Rain = 0
KST2 111333Z 02027KT 12/M01 A3012 RMK A01 T01241007  RH  040%=      5-min Rain = 0
KST2 111334Z 02029KT 12/M01 A3012 RMK A01 T01231007  RH  040%=      5-min Rain = 0
KST2 111335Z 02026KT 12/M01 A3012 RMK A01 T01231007  RH  040%=      5-min Rain = 0
KST2 111336Z 02023KT 12/M01 A3012 RMK A01 T01231007  RH  041%=      5-min Rain = 0
KST2 111337Z 02025G32KT 12/M01 A3012 RMK A01 T01231006  RH  041%=      5-min Rain = 0
KST2 111338Z 02023G28KT 12/M01 A3012 RMK A01 T01231007  RH  041%=      5-min Rain = 0
KST2 111339Z 02024G30KT 12/M01 A3012 RMK A01 T01231006  RH  041%=      5-min Rain = 0
KST2 111340Z 02027KT 12/M01 A3012 RMK A01 T01231007  RH  041%=      5-min Rain = 0
KST2 111341Z 02025KT 12/M01 A3012 RMK A01 T01231008  RH  040%=      5-min Rain = 0
KST2 111342Z 02024KT 12/M01 A3013 RMK A01 T01231008  RH  040%=      5-min Rain = 0
KST2 111343Z 02026KT 12/M01 A3013 RMK A01 T01221008  RH  040%=      5-min Rain = 0
KST2 111344Z 02027G32KT 12/M01 A3013 RMK A01 T01221008  RH  040%=      5-min Rain = 0
KST2 111345Z 02023G28KT 12/M01 A3012 RMK A01 T01221008  RH  041%=      5-min Rain = 0
KST2 111346Z 02030G35KT 12/M01 A3013 RMK A01 T01221008  RH  040%=      5-min Rain = 0
KST2 111347Z 02029KT 12/M01 A3012 RMK A01 T01221010  RH  040%=      5-min Rain = 0
KST2 111348Z 02027G33KT 12/M01 A3012 RMK A01 T01221009  RH  040%=      5-min Rain = 0
KST2 111349Z 02026KT 12/M01 A3012 RMK A01 T01211009  RH  040%=      5-min Rain = 0
KST2 111350Z 03027KT 12/M01 A3013 RMK A01 T01211010  RH  040%=      5-min Rain = 0
KST2 111351Z 02028KT 12/M01 A3013 RMK A01 T01211010  RH  040%=      5-min Rain = 0
KST2 111352Z 03028KT 12/M01 A3013 RMK A01 T01211010  RH  040%=      5-min Rain = 0
KST2 111353Z 03029G36KT 12/M01 A3013 RMK A01 T01211010  RH  040%=      5-min Rain = 0
KST2 111354Z 03027KT 12/M01 A3013 RMK A01 T01211009  RH  041%=      5-min Rain = 0
KST2 111355Z 02023G28KT 12/M01 A3013 RMK A01 T01201009  RH  041%=      5-min Rain = 0
KST2 111356Z 03024G30KT 12/M01 A3013 RMK A01 T01201008  RH  041%=      5-min Rain = 0
KST2 111357Z 03026KT 12/M01 A3013 RMK A01 T01201008  RH  041%=      5-min Rain = 0
KST2 111358Z 02027KT 12/M01 A3013 RMK A01 T01201009  RH  041%=      5-min Rain = 0
KST2 111359Z 02025KT 12/M01 A3013 RMK A01 T01201009  RH  041%=      5-min Rain = 0
KST2 111400Z 02023KT 12/M01 A3013 RMK A01 T01201008  RH  041%=      5-min Rain = 0
KST2 111401Z 02022KT 12/M01 A3013 RMK A01 T01201007  RH  041%=      5-min Rain = 0
KST2 111402Z 02022KT 12/M01 A3013 RMK A01 T01201006  RH  042%=      5-min Rain = 0
KST2 111403Z 02024KT 12/M01 A3013 RMK A01 T01191007  RH  042%=      5-min Rain = 0
KST2 111404Z 03020KT 12/M01 A3013 RMK A01 T01191007  RH  042%=      5-min Rain = 0
KST2 111405Z 02021KT 12/M01 A3013 RMK A01 T01191006  RH  042%=      5-min Rain = 0
KST2 111406Z 02020KT 12/M01 A3014 RMK A01 T01191006  RH  042%=      5-min Rain = 0
KST2 111407Z 02021KT 12/M01 A3013 RMK A01 T01191006  RH  042%=      5-min Rain = 0
KST2 111408Z 02019KT 12/M01 A3014 RMK A01 T01191006  RH  042%=      5-min Rain = 0
KST2 111409Z 02020KT 12/M01 A3014 RMK A01 T01191006  RH  042%=      5-min Rain = 0
KST2 111410Z 02017KT 12/M01 A3014 RMK A01 T01191005  RH  042%=      5-min Rain = 0
KST2 111411Z 02017G22KT 12/M00 A3014 RMK A01 T01191004  RH  043%=      5-min Rain = 0
KST2 111412Z 02017KT 12/M00 A3014 RMK A01 T01191003  RH  043%=      5-min Rain = 0
KST2 111413Z 02016KT 12/M00 A3014 RMK A01 T01201003  RH  043%=      5-min Rain = 0
KST2 111414Z 02022G27KT 12/M00 A3014 RMK A01 T01211003  RH  042%=      5-min Rain = 0
KST2 111415Z 02025KT 12/M01 A3014 RMK A01 T01211005  RH  042%=      5-min Rain = 0
KST2 111416Z 02023KT 12/M01 A3014 RMK A01 T01211005  RH  042%=      5-min Rain = 0
KST2 111417Z 02022KT 12/M00 A3014 RMK A01 T01211004  RH  042%=      5-min Rain = 0
KST2 111418Z 02021KT 12/M00 A3014 RMK A01 T01221002  RH  042%=      5-min Rain = 0
KST2 111419Z 02020KT 12/00 A3014 RMK A01 T012200-0  RH  043%=      5-min Rain = 0
KST2 111420Z 02023G30KT 12/M00 A3015 RMK A01 T01231001  RH  042%=      5-min Rain = 0
KST2 111421Z 03029KT 12/M00 A3015 RMK A01 T01221003  RH  042%=      5-min Rain = 0
KST2 111422Z 02027KT 12/M00 A3015 RMK A01 T01221003  RH  042%=      5-min Rain = 0
KST2 111423Z 03027KT 12/M00 A3015 RMK A01 T01211003  RH  042%=      5-min Rain = 0
KST2 111424Z 03024KT 12/M00 A3015 RMK A01 T01211003  RH  043%=      5-min Rain = 0
KST2 111425Z 03023KT 12/M00 A3015 RMK A01 T01211002  RH  043%=      5-min Rain = 0
KST2 111426Z 02020G25KT 12/00 A3015 RMK A01 T012200-0  RH  043%=      5-min Rain = 0
KST2 111427Z 02018KT 12/00 A3015 RMK A01 T01240003  RH  043%=      5-min Rain = 0
KST2 111428Z 02019KT 13/00 A3015 RMK A01 T01250004  RH  043%=      5-min Rain = 0
KST2 111429Z 01025KT 13/00 A3015 RMK A01 T01260004  RH  043%=      5-min Rain = 0
KST2 111430Z 02023G29KT 13/00 A3015 RMK A01 T01260002  RH  043%=      5-min Rain = 0
KST2 111431Z 02021G26KT 13/01 A3015 RMK A01 T01250005  RH  044%=      5-min Rain = 0
KST2 111432Z 02024KT 13/00 A3015 RMK A01 T01260004  RH  043%=      5-min Rain = 0
KST2 111433Z 02022KT 13/00 A3015 RMK A01 T01250004  RH  043%=      5-min Rain = 0
KST2 111434Z 03024KT 13/00 A3015 RMK A01 T01250003  RH  043%=      5-min Rain = 0
KST2 111435Z 03023KT 12/00 A3016 RMK A01 T01240001  RH  043%=      5-min Rain = 0
KST2 111436Z 02022KT 12/00 A3015 RMK A01 T01230002  RH  043%=      5-min Rain = 0
KST2 111437Z 02021KT 12/00 A3016 RMK A01 T01230003  RH  044%=      5-min Rain = 0
KST2 111438Z 03025KT 12/00 A3016 RMK A01 T01230002  RH  043%=      5-min Rain = 0
KST2 111439Z 02024KT 12/00 A3016 RMK A01 T01220002  RH  044%=      5-min Rain = 0
KST2 111440Z 02023KT 12/00 A3016 RMK A01 T01210003  RH  044%=      5-min Rain = 0
KST2 111441Z 02023KT 12/00 A3016 RMK A01 T01210003  RH  044%=      5-min Rain = 0
KST2 111442Z 02020KT 12/00 A3016 RMK A01 T01220004  RH  044%=      5-min Rain = 0
KST2 111443Z 01023KT 12/01 A3016 RMK A01 T01240005  RH  044%=      5-min Rain = 0
KST2 111444Z 02019KT 13/01 A3016 RMK A01 T01250005  RH  044%=      5-min Rain = 0
KST2 111445Z 02023G30KT 13/01 A3016 RMK A01 T01260006  RH  044%=      5-min Rain = 0
KST2 111446Z 01027G32KT 13/00 A3017 RMK A01 T01250003  RH  043%=      5-min Rain = 0
KST2 111447Z 02029KT 12/00 A3017 RMK A01 T01210000  RH  043%=      5-min Rain = 0
KST2 111448Z 02028KT 12/00 A3017 RMK A01 T01200001  RH  044%=      5-min Rain = 0
KST2 111449Z 02026G31KT 12/00 A3017 RMK A01 T01190002  RH  044%=      5-min Rain = 0
KST2 111450Z 02028KT 12/00 A3017 RMK A01 T01180002  RH  045%=      5-min Rain = 0
KST2 111451Z 02026KT 12/00 A3017 RMK A01 T01180002  RH  045%=      5-min Rain = 0
KST2 111452Z 02027KT 12/00 A3017 RMK A01 T01180001  RH  045%=      5-min Rain = 0
KST2 111453Z 02025KT 12/00 A3017 RMK A01 T01180001  RH  045%=      5-min Rain = 0
KST2 111454Z 01028KT 12/00 A3017 RMK A01 T01180001  RH  045%=      5-min Rain = 0
KST2 111455Z 01028KT 12/00 A3017 RMK A01 T01180001  RH  044%=      5-min Rain = 0
KST2 111456Z 01026G31KT 12/00 A3017 RMK A01 T01180001  RH  045%=      5-min Rain = 0
KST2 111457Z 01027KT 12/00 A3017 RMK A01 T011800-0  RH  044%=      5-min Rain = 0
KST2 111458Z 02027KT 12/00 A3018 RMK A01 T01180001  RH  044%=      5-min Rain = 0
KST2 111459Z 02025KT 12/00 A3018 RMK A01 T01180001  RH  044%=      5-min Rain = 0
KST2 111500Z 02021KT 12/00 A3018 RMK A01 T01180002  RH  045%=      5-min Rain = 0
KST2 111501Z 01023G28KT 12/00 A3018 RMK A01 T01190003  RH  045%=      5-min Rain = 0
KST2 111502Z 01030KT 12/00 A3019 RMK A01 T01210001  RH  044%=      5-min Rain = 0
KST2 111503Z 01028G34KT 12/00 A3018 RMK A01 T01210000  RH  043%=      5-min Rain = 0
KST2 111504Z 01029KT 12/00 A3019 RMK A01 T012000-0  RH  043%=      5-min Rain = 0
KST2 111505Z 01030KT 12/M00 A3018 RMK A01 T01191001  RH  043%=      5-min Rain = 0
KST2 111506Z 01030KT 12/M00 A3018 RMK A01 T01191002  RH  043%=      5-min Rain = 0
KST2 111507Z 02027KT 12/M00 A3018 RMK A01 T01191002  RH  043%=      5-min Rain = 0
KST2 111508Z 02027G32KT 12/M00 A3018 RMK A01 T01191001  RH  043%=      5-min Rain = 0
KST2 111509Z 01027G33KT 12/00 A3018 RMK A01 T011900-0  RH  044%=      5-min Rain = 0
KST2 111510Z 01030KT 12/M00 A3018 RMK A01 T01191002  RH  043%=      5-min Rain = 0
KST2 111511Z 01027G34KT 12/M00 A3018 RMK A01 T01191002  RH  043%=      5-min Rain = 0
KST2 111512Z 01026KT 12/M00 A3018 RMK A01 T01191001  RH  044%=      5-min Rain = 0
KST2 111513Z 02024G30KT 12/M00 A3018 RMK A01 T01191001  RH  044%=      5-min Rain = 0
KST2 111514Z 02029KT 12/M00 A3019 RMK A01 T01201002  RH  043%=      5-min Rain = 0
KST2 111515Z 03029KT 12/M00 A3019 RMK A01 T01191004  RH  043%=      5-min Rain = 0
KST2 111516Z 02028KT 12/M00 A3019 RMK A01 T01181004  RH  043%=      5-min Rain = 0
KST2 111517Z 02028KT 12/M00 A3019 RMK A01 T01181003  RH  043%=      5-min Rain = 0
KST2 111518Z 03025KT 12/M00 A3019 RMK A01 T01171002  RH  044%=      5-min Rain = 0
KST2 111519Z 03025KT 12/M00 A3019 RMK A01 T01171002  RH  044%=      5-min Rain = 0
KST2 111520Z 03023KT 12/M00 A3019 RMK A01 T01171001  RH  044%=      5-min Rain = 0
KST2 111521Z 02020KT 12/00 A3019 RMK A01 T011800-0  RH  044%=      5-min Rain = 0
KST2 111522Z 02021KT 12/00 A3019 RMK A01 T01190000  RH  044%=      5-min Rain = 0
KST2 111523Z 02022KT 12/00 A3019 RMK A01 T01200001  RH  044%=      5-min Rain = 0
KST2 111524Z 03025G30KT 12/00 A302 RMK A01 T011900-0  RH  044%=      5-min Rain = 0
KST2 111525Z 02023KT 12/00 A302 RMK A01 T01190001  RH  044%=      5-min Rain = 0
KST2 111526Z 01024G29KT 12/00 A302 RMK A01 T01190000  RH  044%=      5-min Rain = 0
KST2 111527Z 02023KT 12/00 A3019 RMK A01 T01190001  RH  044%=      5-min Rain = 0
KST2 111528Z 02025KT 12/00 A302 RMK A01 T01200000  RH  044%=      5-min Rain = 0
KST2 111529Z 03021G26KT 12/00 A302 RMK A01 T012000-0  RH  043%=      5-min Rain = 0
KST2 111530Z 02019KT 12/00 A302 RMK A01 T01220002  RH  044%=      5-min Rain = 0
KST2 111531Z 02024KT 12/00 A302 RMK A01 T01230001  RH  043%=      5-min Rain = 0
KST2 111532Z 03023KT 12/00 A302 RMK A01 T01230001  RH  043%=      5-min Rain = 0
KST2 111533Z 03024KT 12/00 A302 RMK A01 T01220000  RH  043%=      5-min Rain = 0
KST2 111534Z 03025KT 12/M00 A302 RMK A01 T01221002  RH  042%=      5-min Rain = 0
KST2 111535Z 03025KT 12/M00 A302 RMK A01 T01221002  RH  042%=      5-min Rain = 0
KST2 111536Z 02025KT 12/M00 A302 RMK A01 T01231002  RH  042%=      5-min Rain = 0
KST2 111537Z 02023KT 12/00 A302 RMK A01 T012300-0  RH  043%=      5-min Rain = 0
KST2 111538Z 03023KT 12/00 A302 RMK A01 T012400-0  RH  043%=      5-min Rain = 0
KST2 111539Z 03024KT 12/00 A3021 RMK A01 T012300-0  RH  043%=      5-min Rain = 0
KST2 111540Z 02022KT 12/M00 A3021 RMK A01 T01221001  RH  042%=      5-min Rain = 0
KST2 111541Z 02020KT 12/M00 A3021 RMK A01 T01221001  RH  043%=      5-min Rain = 0
KST2 111542Z 02021KT 12/00 A3021 RMK A01 T01230000  RH  043%=      5-min Rain = 0
KST2 111543Z 02020KT 12/00 A3021 RMK A01 T01240001  RH  043%=      5-min Rain = 0
KST2 111544Z 02020KT 12/00 A3021 RMK A01 T01240001  RH  043%=      5-min Rain = 0
KST2 111545Z 03020KT 12/00 A3021 RMK A01 T01230001  RH  043%=      5-min Rain = 0
KST2 111546Z 03020KT 12/00 A3021 RMK A01 T01230002  RH  043%=      5-min Rain = 0
KST2 111547Z 02017KT 12/00 A3021 RMK A01 T01230003  RH  044%=      5-min Rain = 0
KST2 111548Z 02021KT 13/00 A3021 RMK A01 T01250004  RH  043%=      5-min Rain = 0
KST2 111549Z 02022KT 13/00 A3022 RMK A01 T01250002  RH  043%=      5-min Rain = 0
KST2 111550Z 02022KT 12/00 A3022 RMK A01 T01230002  RH  043%=      5-min Rain = 0
KST2 111551Z 02022KT 12/00 A3022 RMK A01 T01220002  RH  044%=      5-min Rain = 0
KST2 111552Z 01021KT 12/00 A3022 RMK A01 T01210002  RH  044%=      5-min Rain = 0
KST2 111553Z 01019KT 12/00 A3022 RMK A01 T01210002  RH  044%=      5-min Rain = 0
KST2 111554Z 02017KT 12/00 A3022 RMK A01 T01220003  RH  044%=      5-min Rain = 0
KST2 111555Z 03021G27KT 13/00 A3022 RMK A01 T01250002  RH  043%=      5-min Rain = 0
KST2 111556Z 03025KT 12/M00 A3023 RMK A01 T01241003  RH  042%=      5-min Rain = 0
KST2 111557Z 03022KT 12/M00 A3022 RMK A01 T01221003  RH  042%=      5-min Rain = 0
KST2 111558Z 03024KT 12/M00 A3023 RMK A01 T01221002  RH  043%=      5-min Rain = 0
KST2 111559Z 02026KT 12/M00 A3023 RMK A01 T01221002  RH  043%=      5-min Rain = 0
KST2 111600Z 03026G31KT 12/M01 A3023 RMK A01 T01211005  RH  042%=      5-min Rain = 0
KST2 111601Z 03025KT 12/M01 A3023 RMK A01 T01191009  RH  041%=      5-min Rain = 0
KST2 111602Z 03026KT 12/M01 A3023 RMK A01 T01191007  RH  042%=      5-min Rain = 0
KST2 111603Z 02024KT 12/M01 A3023 RMK A01 T01191007  RH  042%=      5-min Rain = 0
KST2 111604Z 02023KT 12/M01 A3023 RMK A01 T01181007  RH  042%=      5-min Rain = 0
KST2 111605Z 02022KT 12/M01 A3022 RMK A01 T01201005  RH  042%=      5-min Rain = 0
KST2 111606Z 03023KT 12/M00 A3023 RMK A01 T01221004  RH  042%=      5-min Rain = 0
KST2 111607Z 03023KT 12/M00 A3023 RMK A01 T01231003  RH  042%=      5-min Rain = 0
KST2 111608Z 03023KT 12/M00 A3023 RMK A01 T01231002  RH  042%=      5-min Rain = 0
KST2 111609Z 03021KT 12/M00 A3023 RMK A01 T01241002  RH  042%=      5-min Rain = 0
KST2 111610Z 03023KT 12/M00 A3023 RMK A01 T01241001  RH  042%=      5-min Rain = 0
KST2 111611Z 02018KT 13/00 A3022 RMK A01 T01250000  RH  042%=      5-min Rain = 0
KST2 111612Z 03019KT 13/00 A3023 RMK A01 T01280002  RH  042%=      5-min Rain = 0
KST2 111613Z 03021KT 13/00 A3023 RMK A01 T01290002  RH  042%=      5-min Rain = 0
KST2 111614Z 04023KT 13/00 A3023 RMK A01 T01290000  RH  041%=      5-min Rain = 0
KST2 111615Z 04021KT 13/M00 A3023 RMK A01 T01261001  RH  041%=      5-min Rain = 0
KST2 111616Z 03020KT 13/00 A3023 RMK A01 T01270002  RH  042%=      5-min Rain = 0
KST2 111617Z 03020KT 13/00 A3023 RMK A01 T01280002  RH  042%=      5-min Rain = 0
KST2 111618Z 03019KT 13/00 A3023 RMK A01 T01280002  RH  042%=      5-min Rain = 0
KST2 111619Z 03018KT 13/00 A3023 RMK A01 T01270001  RH  042%=      5-min Rain = 0
KST2 111620Z 03019KT 13/00 A3023 RMK A01 T01270002  RH  042%=      5-min Rain = 0
KST2 111621Z 04020KT 13/00 A3023 RMK A01 T01270001  RH  042%=      5-min Rain = 0
KST2 111622Z 03018KT 13/00 A3023 RMK A01 T01250001  RH  042%=      5-min Rain = 0
KST2 111623Z 02018G23KT 13/00 A3023 RMK A01 T01250003  RH  043%=      5-min Rain = 0
KST2 111624Z 01019KT 13/00 A3023 RMK A01 T01270004  RH  043%=      5-min Rain = 0
KST2 111625Z 01022KT 13/00 A3023 RMK A01 T01270003  RH  043%=      5-min Rain = 0
KST2 111626Z 00021KT 13/00 A3023 RMK A01 T01270003  RH  043%=      5-min Rain = 0
KST2 111627Z 01019G24KT 13/00 A3023 RMK A01 T01270003  RH  042%=      5-min Rain = 0
KST2 111628Z 01022KT 13/00 A3023 RMK A01 T01270003  RH  042%=      5-min Rain = 0
KST2 111629Z 02022G27KT 13/00 A3023 RMK A01 T01260000  RH  042%=      5-min Rain = 0
KST2 111630Z 02019KT 13/00 A3023 RMK A01 T01250002  RH  043%=      5-min Rain = 0
KST2 111631Z 00021KT 13/00 A3023 RMK A01 T01250001  RH  042%=      5-min Rain = 0
KST2 111632Z 00020KT 13/M00 A3023 RMK A01 T01271001  RH  041%=      5-min Rain = 0
KST2 111633Z 00024G29KT 13/M00 A3023 RMK A01 T01291002  RH  041%=      5-min Rain = 0
KST2 111634Z 01024KT 13/M01 A3023 RMK A01 T01271005  RH  040%=      5-min Rain = 0
KST2 111635Z 01022KT 13/M01 A3024 RMK A01 T01251005  RH  041%=      5-min Rain = 0
KST2 111636Z 01021KT 13/M00 A3024 RMK A01 T01251004  RH  041%=      5-min Rain = 0
KST2 111637Z 00021KT 13/M00 A3024 RMK A01 T01251003  RH  041%=      5-min Rain = 0
KST2 111638Z 00021KT 13/M00 A3024 RMK A01 T01261004  RH  041%=      5-min Rain = 0
KST2 111639Z 00023KT 13/M00 A3024 RMK A01 T01271004  RH  040%=      5-min Rain = 0
KST2 111640Z 00023KT 13/M01 A3024 RMK A01 T01261007  RH  040%=      5-min Rain = 0
KST2 111641Z 01023KT 13/M01 A3024 RMK A01 T01251009  RH  040%=      5-min Rain = 0
KST2 111642Z 01023KT 12/M01 A3025 RMK A01 T01241012  RH  039%=      5-min Rain = 0
KST2 111643Z 00021KT 12/M01 A3024 RMK A01 T01231012  RH  039%=      5-min Rain = 0
KST2 111644Z 01022KT 12/M01 A3024 RMK A01 T01221012  RH  039%=      5-min Rain = 0
KST2 111645Z 01021KT 12/M01 A3025 RMK A01 T01241011  RH  039%=      5-min Rain = 0
KST2 111646Z 01020G25KT 13/M01 A3025 RMK A01 T01251012  RH  039%=      5-min Rain = 0
KST2 111647Z 36026KT 12/M02 A3024 RMK A01 T01241015  RH  038%=      5-min Rain = 0
KST2 111648Z 00025G30KT 12/M02 A3025 RMK A01 T01241017  RH  038%=      5-min Rain = 0
KST2 111649Z 01025KT 12/M02 A3025 RMK A01 T01231020  RH  037%=      5-min Rain = 0
KST2 111650Z 02024KT 12/M02 A3025 RMK A01 T01231019  RH  037%=      5-min Rain = 0
KST2 111651Z 02019G24KT 12/M02 A3025 RMK A01 T01221019  RH  038%=      5-min Rain = 0
KST2 111652Z 02021KT 12/M02 A3025 RMK A01 T01231018  RH  038%=      5-min Rain = 0
KST2 111653Z 02023KT 12/M02 A3025 RMK A01 T01241018  RH  037%=      5-min Rain = 0
KST2 111654Z 03022KT 13/M02 A3025 RMK A01 T01251019  RH  037%=      5-min Rain = 0
KST2 111655Z 02020KT 12/M02 A3025 RMK A01 T01241019  RH  037%=      5-min Rain = 0
KST2 111656Z 01021KT 12/M02 A3025 RMK A01 T01241018  RH  037%=      5-min Rain = 0
KST2 111657Z 00022KT 13/M02 A3025 RMK A01 T01261018  RH  037%=      5-min Rain = 0
KST2 111658Z 01023G30KT 13/M02 A3025 RMK A01 T01281016  RH  037%=      5-min Rain = 0
KST2 111659Z 02024KT 13/M02 A3025 RMK A01 T01291019  RH  036%=      5-min Rain = 0
KST2 111700Z 01023KT 13/M02 A3025 RMK A01 T01261020  RH  036%=      5-min Rain = 0
KST2 111701Z 01022KT 13/M02 A3025 RMK A01 T01251020  RH  036%=      5-min Rain = 0
KST2 111702Z 02022KT 13/M02 A3025 RMK A01 T01271020  RH  036%=      5-min Rain = 0
KST2 111703Z 02020KT 13/M02 A3025 RMK A01 T01271021  RH  036%=      5-min Rain = 0
KST2 111704Z 02020KT 13/M02 A3025 RMK A01 T01261021  RH  036%=      5-min Rain = 0
KST2 111705Z 01020KT 12/M02 A3025 RMK A01 T01241021  RH  036%=      5-min Rain = 0
KST2 111706Z 00021KT 12/M02 A3025 RMK A01 T01241018  RH  037%=      5-min Rain = 0
KST2 111707Z 36020KT 12/M02 A3025 RMK A01 T01231017  RH  038%=      5-min Rain = 0
KST2 111708Z 01021KT 12/M02 A3025 RMK A01 T01221015  RH  038%=      5-min Rain = 0
KST2 111709Z 01019KT 12/M02 A3025 RMK A01 T01221015  RH  039%=      5-min Rain = 0
KST2 111710Z 01021KT 12/M01 A3025 RMK A01 T01221014  RH  039%=      5-min Rain = 0
KST2 111711Z 01021KT 12/M01 A3025 RMK A01 T01211013  RH  039%=      5-min Rain = 0
KST2 111712Z 02020KT 12/M01 A3025 RMK A01 T01231013  RH  039%=      5-min Rain = 0
KST2 111713Z 02020KT 13/M01 A3025 RMK A01 T01251012  RH  039%=      5-min Rain = 0
KST2 111714Z 02019KT 13/M01 A3025 RMK A01 T01261012  RH  038%=      5-min Rain = 0
KST2 111715Z 01019KT 13/M01 A3025 RMK A01 T01271013  RH  038%=      5-min Rain = 0
KST2 111716Z 01021KT 13/M02 A3025 RMK A01 T01301016  RH  036%=      5-min Rain = 0
KST2 111717Z 36024G30KT 13/M03 A3025 RMK A01 T01311025  RH  034%=      5-min Rain = 0
KST2 111718Z 01028KT 13/M03 A3025 RMK A01 T01291033  RH  032%=      5-min Rain = 0
KST2 111719Z 00024KT 13/M04 A3025 RMK A01 T01251037  RH  032%=      5-min Rain = 0
KST2 111720Z 00023KT 12/M04 A3025 RMK A01 T01241038  RH  032%=      5-min Rain = 0
KST2 111721Z 02021G26KT 12/M03 A3026 RMK A01 T01241034  RH  033%=      5-min Rain = 0
KST2 111722Z 02023KT 13/M03 A3026 RMK A01 T01261034  RH  033%=      5-min Rain = 0
KST2 111723Z 02023G29KT 13/M04 A3026 RMK A01 T01261040  RH  031%=      5-min Rain = 0
KST2 111724Z 02026KT 13/M04 A3026 RMK A01 T01261043  RH  031%=      5-min Rain = 0
KST2 111725Z 02021G27KT 12/M05 A3026 RMK A01 T01241045  RH  031%=      5-min Rain = 0
KST2 111726Z 02024KT 12/M04 A3026 RMK A01 T01231044  RH  031%=      5-min Rain = 0
KST2 111727Z 02023KT 12/M04 A3026 RMK A01 T01221043  RH  031%=      5-min Rain = 0
KST2 111728Z 03021KT 12/M04 A3026 RMK A01 T01211043  RH  032%=      5-min Rain = 0
KST2 111729Z 02021KT 12/M04 A3026 RMK A01 T01201043  RH  032%=      5-min Rain = 0
KST2 111730Z 02023KT 12/M04 A3026 RMK A01 T01211039  RH  032%=      5-min Rain = 0
KST2 111731Z 02021KT 12/M04 A3026 RMK A01 T01221038  RH  032%=      5-min Rain = 0
KST2 111732Z 01020KT 12/M04 A3026 RMK A01 T01231036  RH  033%=      5-min Rain = 0
KST2 111733Z 00021KT 12/M04 A3026 RMK A01 T01241035  RH  033%=      5-min Rain = 0
KST2 111734Z 00022KT 12/M04 A3025 RMK A01 T01211035  RH  033%=      5-min Rain = 0
KST2 111735Z 01022KT 12/M03 A3025 RMK A01 T01221032  RH  034%=      5-min Rain = 0
KST2 111736Z 00021KT 12/M03 A3025 RMK A01 T01241030  RH  034%=      5-min Rain = 0
KST2 111737Z 00020KT 13/M03 A3025 RMK A01 T01271028  RH  034%=      5-min Rain = 0
KST2 111738Z 01018G23KT 13/M03 A3025 RMK A01 T01281027  RH  034%=      5-min Rain = 0
KST2 111739Z 02018KT 13/M03 A3025 RMK A01 T01311030  RH  033%=      5-min Rain = 0
KST2 111740Z 03021KT 13/M03 A3026 RMK A01 T01301034  RH  032%=      5-min Rain = 0
KST2 111741Z 02018KT 13/M04 A3026 RMK A01 T01271038  RH  032%=      5-min Rain = 0
KST2 111742Z 02020G25KT 13/M03 A3026 RMK A01 T01281031  RH  033%=      5-min Rain = 0
KST2 111743Z 01019KT 13/M03 A3026 RMK A01 T01301026  RH  034%=      5-min Rain = 0
KST2 111744Z 01020KT 13/M03 A3026 RMK A01 T01301028  RH  033%=      5-min Rain = 0
KST2 111745Z 02019KT 13/M03 A3026 RMK A01 T01281030  RH  033%=      5-min Rain = 0
KST2 111746Z 02018KT 13/M03 A3026 RMK A01 T01251029  RH  034%=      5-min Rain = 0
KST2 111747Z 01017KT 13/M03 A3026 RMK A01 T01261033  RH  033%=      5-min Rain = 0
KST2 111748Z 01013KT 13/M03 A3026 RMK A01 T01271028  RH  034%=      5-min Rain = 0
KST2 111749Z 01014KT 13/M03 A3026 RMK A01 T01281027  RH  034%=      5-min Rain = 0
KST2 111750Z 02016KT 13/M03 A3026 RMK A01 T01301026  RH  034%=      5-min Rain = 0
KST2 111751Z 02019KT 13/M03 A3026 RMK A01 T01321025  RH  034%=      5-min Rain = 0
KST2 111752Z 03015KT 13/M03 A3026 RMK A01 T01291029  RH  033%=      5-min Rain = 0
KST2 111753Z 02016G22KT 13/M03 A3026 RMK A01 T01281026  RH  034%=      5-min Rain = 0
KST2 111754Z 02019KT 13/M03 A3026 RMK A01 T01291028  RH  033%=      5-min Rain = 0
KST2 111755Z 01017KT 13/M03 A3026 RMK A01 T01281028  RH  034%=      5-min Rain = 0
KST2 111756Z 01018G23KT 13/M03 A3026 RMK A01 T01301027  RH  034%=      5-min Rain = 0
KST2 111757Z 01017KT 13/M03 A3026 RMK A01 T01291031  RH  033%=      5-min Rain = 0
KST2 111758Z 36019G24KT 13/M03 A3025 RMK A01 T01271030  RH  033%=      5-min Rain = 0
KST2 111759Z 00021KT 13/M03 A3025 RMK A01 T01271033  RH  033%=      5-min Rain = 0
KST2 111800Z 00023KT 13/M04 A3025 RMK A01 T01281035  RH  032%=      5-min Rain = 0
KST2 111801Z 35025KT 13/M04 A3025 RMK A01 T01281039  RH  031%=      5-min Rain = 0
KST2 111802Z 36021KT 13/M04 A3025 RMK A01 T01271044  RH  030%=      5-min Rain = 0
KST2 111803Z 35021KT 13/M04 A3025 RMK A01 T01271039  RH  031%=      5-min Rain = 0
KST2 111804Z 36021KT 13/M04 A3025 RMK A01 T01271041  RH  031%=      5-min Rain = 0
KST2 111805Z 00019KT 13/M04 A3026 RMK A01 T01261041  RH  031%=      5-min Rain = 0
KST2 111806Z 00021KT 13/M04 A3026 RMK A01 T01281039  RH  031%=      5-min Rain = 0
KST2 111807Z 01020G25KT 13/M04 A3026 RMK A01 T01321038  RH  031%=      5-min Rain = 0
KST2 111808Z 00020KT 13/M04 A3025 RMK A01 T01331037  RH  030%=      5-min Rain = 0
KST2 111809Z 00021G26KT 13/M04 A3026 RMK A01 T01331037  RH  030%=      5-min Rain = 0
KST2 111810Z 01022KT 13/M04 A3026 RMK A01 T01331039  RH  030%=      5-min Rain = 0
KST2 111811Z 01021KT 13/M04 A3026 RMK A01 T01301041  RH  030%=      5-min Rain = 0
KST2 111812Z 01021KT 13/M05 A3026 RMK A01 T01281047  RH  029%=      5-min Rain = 0
KST2 111813Z 01023KT 13/M05 A3026 RMK A01 T01261050  RH  029%=      5-min Rain = 0
KST2 111814Z 01023KT 13/M05 A3026 RMK A01 T01251054  RH  028%=      5-min Rain = 0
KST2 111815Z 02022KT 12/M06 A3026 RMK A01 T01241056  RH  028%=      5-min Rain = 0
KST2 111816Z 02022KT 12/M06 A3026 RMK A01 T01241058  RH  028%=      5-min Rain = 0
KST2 111817Z 02020G25KT 12/M06 A3026 RMK A01 T01231059  RH  028%=      5-min Rain = 0
KST2 111818Z 02019KT 12/M06 A3026 RMK A01 T01221059  RH  028%=      5-min Rain = 0
KST2 111819Z 02022KT 12/M06 A3026 RMK A01 T01231057  RH  028%=      5-min Rain = 0
KST2 111820Z 01019KT 12/M06 A3025 RMK A01 T01221057  RH  028%=      5-min Rain = 0
KST2 111821Z 02018KT 13/M05 A3025 RMK A01 T01251054  RH  028%=      5-min Rain = 0
KST2 111822Z 01021KT 13/M06 A3026 RMK A01 T01271055  RH  028%=      5-min Rain = 0
KST2 111823Z 02021KT 13/M06 A3026 RMK A01 T01261058  RH  027%=      5-min Rain = 0
KST2 111824Z 02020KT 13/M06 A3025 RMK A01 T01251059  RH  027%=      5-min Rain = 0
KST2 111825Z 02022KT 12/M06 A3026 RMK A01 T01241059  RH  027%=      5-min Rain = 0
KST2 111826Z 02018KT 12/M06 A3025 RMK A01 T01241057  RH  028%=      5-min Rain = 0
KST2 111827Z 01021KT 13/M06 A3025 RMK A01 T01251057  RH  028%=      5-min Rain = 0
KST2 111828Z 01019KT 12/M06 A3026 RMK A01 T01241058  RH  028%=      5-min Rain = 0
KST2 111829Z 02020KT 13/M06 A3026 RMK A01 T01251056  RH  028%=      5-min Rain = 0
KST2 111830Z 02021KT 13/M06 A3026 RMK A01 T01261055  RH  028%=      5-min Rain = 0
KST2 111831Z 01020KT 13/M06 A3025 RMK A01 T01261059  RH  027%=      5-min Rain = 0
KST2 111832Z 01018G23KT 13/M06 A3025 RMK A01 T01261059  RH  027%=      5-min Rain = 0
KST2 111833Z 01020KT 13/M06 A3026 RMK A01 T01251060  RH  027%=      5-min Rain = 0
KST2 111834Z 00020KT 13/M06 A3026 RMK A01 T01251060  RH  027%=      5-min Rain = 0
KST2 111835Z 01019KT 12/M06 A3025 RMK A01 T01241059  RH  027%=      5-min Rain = 0
KST2 111836Z 01017KT 12/M06 A3025 RMK A01 T01241058  RH  028%=      5-min Rain = 0
KST2 111837Z 35014KT 13/M06 A3025 RMK A01 T01251056  RH  028%=      5-min Rain = 0
KST2 111838Z 35018KT 13/M05 A3025 RMK A01 T01271054  RH  028%=      5-min Rain = 0
KST2 111839Z 36018KT 13/M06 A3025 RMK A01 T01281055  RH  028%=      5-min Rain = 0
KST2 111840Z 35017KT 13/M06 A3025 RMK A01 T01271055  RH  028%=      5-min Rain = 0
KST2 111841Z 35016KT 13/M06 A3025 RMK A01 T01271055  RH  028%=      5-min Rain = 0
KST2 111842Z 35018KT 13/M05 A3025 RMK A01 T01271054  RH  028%=      5-min Rain = 0
KST2 111843Z 02020G25KT 13/M05 A3025 RMK A01 T01281051  RH  028%=      5-min Rain = 0
KST2 111844Z 01017KT 13/M05 A3025 RMK A01 T01291053  RH  028%=      5-min Rain = 0
KST2 111845Z 36014KT 13/M05 A3025 RMK A01 T01291053  RH  028%=      5-min Rain = 0
KST2 111846Z 35012KT 13/M06 A3025 RMK A01 T01271055  RH  028%=      5-min Rain = 0
KST2 111847Z 35019KT 13/M05 A3025 RMK A01 T01271053  RH  028%=      5-min Rain = 0
KST2 111848Z 35020KT 13/M05 A3025 RMK A01 T01291053  RH  028%=      5-min Rain = 0
KST2 111849Z 35019KT 13/M05 A3025 RMK A01 T01291054  RH  028%=      5-min Rain = 0
KST2 111850Z 35019G24KT 13/M06 A3025 RMK A01 T01271055  RH  028%=      5-min Rain = 0
KST2 111851Z 35018KT 13/M06 A3025 RMK A01 T01261057  RH  027%=      5-min Rain = 0
KST2 111852Z 36020KT 13/M06 A3025 RMK A01 T01261057  RH  027%=      5-min Rain = 0
KST2 111853Z 35021KT 13/M06 A3025 RMK A01 T01261059  RH  027%=      5-min Rain = 0
KST2 111854Z 36018KT 13/M06 A3025 RMK A01 T01251058  RH  027%=      5-min Rain = 0
KST2 111855Z 36019KT 13/M06 A3025 RMK A01 T01261057  RH  027%=      5-min Rain = 0
KST2 111856Z 01019G24KT 13/M06 A3025 RMK A01 T01261059  RH  027%=      5-min Rain = 0
KST2 111857Z 02016KT 13/M06 A3025 RMK A01 T01261060  RH  027%=      5-min Rain = 0
KST2 111858Z 01017KT 13/M06 A3025 RMK A01 T01261059  RH  027%=      5-min Rain = 0
KST2 111859Z 00015KT 13/M06 A3025 RMK A01 T01261060  RH  027%=      5-min Rain = 0
KST2 111900Z 36013KT 13/M06 A3025 RMK A01 T01261058  RH  027%=      5-min Rain = 0
KST2 111901Z 35017KT 13/M06 A3025 RMK A01 T01281056  RH  027%=      5-min Rain = 0
KST2 111902Z 36018KT 13/M06 A3025 RMK A01 T01281059  RH  027%=      5-min Rain = 0
KST2 111903Z 36015KT 13/M06 A3025 RMK A01 T01281063  RH  026%=      5-min Rain = 0
KST2 111904Z 00015G20KT 13/M06 A3025 RMK A01 T01291059  RH  027%=      5-min Rain = 0
KST2 111905Z 00015KT 13/M06 A3025 RMK A01 T01321059  RH  026%=      5-min Rain = 0
KST2 111906Z 02019KT 13/M06 A3025 RMK A01 T01341061  RH  025%=      5-min Rain = 0
KST2 111907Z 02019KT 13/M07 A3025 RMK A01 T01311065  RH  025%=      5-min Rain = 0
KST2 111908Z 01019KT 13/M06 A3025 RMK A01 T01311063  RH  026%=      5-min Rain = 0
KST2 111909Z 01019KT 13/M07 A3025 RMK A01 T01311065  RH  025%=      5-min Rain = 0
KST2 111910Z 01019KT 13/M07 A3025 RMK A01 T01301070  RH  024%=      5-min Rain = 0
KST2 111911Z 00021KT 13/M07 A3025 RMK A01 T01291070  RH  024%=      5-min Rain = 0
KST2 111912Z 00019KT 13/M07 A3025 RMK A01 T01281073  RH  024%=      5-min Rain = 0
KST2 111913Z 00018KT 13/M07 A3025 RMK A01 T01271070  RH  025%=      5-min Rain = 0
KST2 111914Z 00018KT 13/M07 A3025 RMK A01 T01271070  RH  025%=      5-min Rain = 0
KST2 111915Z 00018KT 13/M07 A3024 RMK A01 T01281071  RH  024%=      5-min Rain = 0
KST2 111916Z 36023KT 13/M07 A3024 RMK A01 T01271067  RH  025%=      5-min Rain = 0
KST2 111917Z 36020KT 13/M07 A3024 RMK A01 T01281068  RH  025%=      5-min Rain = 0
KST2 111918Z 36018KT 13/M07 A3024 RMK A01 T01291067  RH  025%=      5-min Rain = 0
KST2 111919Z 36019KT 13/M07 A3024 RMK A01 T01301066  RH  025%=      5-min Rain = 0
KST2 111920Z 36019KT 13/M07 A3024 RMK A01 T01301069  RH  024%=      5-min Rain = 0
KST2 111921Z 36021G26KT 13/M07 A3024 RMK A01 T01311067  RH  025%=      5-min Rain = 0
KST2 111922Z 00022KT 13/M07 A3024 RMK A01 T01321068  RH  024%=      5-min Rain = 0
KST2 111923Z 01016G21KT 13/M07 A3024 RMK A01 T01321069  RH  024%=      5-min Rain = 0
KST2 111924Z 36016KT 13/M07 A3024 RMK A01 T01321066  RH  025%=      5-min Rain = 0
KST2 111925Z 36015KT 13/M07 A3024 RMK A01 T01331067  RH  024%=      5-min Rain = 0
KST2 111926Z 00017KT 13/M07 A3024 RMK A01 T01331067  RH  024%=      5-min Rain = 0
KST2 111927Z 36016KT 13/M07 A3024 RMK A01 T01341065  RH  025%=      5-min Rain = 0
KST2 111928Z 01018KT 13/M07 A3024 RMK A01 T01341067  RH  024%=      5-min Rain = 0
KST2 111929Z 02018KT 14/M07 A3024 RMK A01 T01351073  RH  023%=      5-min Rain = 0
KST2 111930Z 02017KT 14/M07 A3024 RMK A01 T01361071  RH  023%=      5-min Rain = 0
KST2 111931Z 01018KT 14/M07 A3024 RMK A01 T01371070  RH  023%=      5-min Rain = 0
KST2 111932Z 02019KT 14/M07 A3024 RMK A01 T01381066  RH  024%=      5-min Rain = 0
KST2 111933Z 01017KT 14/M07 A3024 RMK A01 T01381069  RH  023%=      5-min Rain = 0
KST2 111934Z 01017KT 14/M07 A3024 RMK A01 T01371068  RH  023%=      5-min Rain = 0
KST2 111935Z 02018KT 14/M07 A3024 RMK A01 T01391067  RH  023%=      5-min Rain = 0
KST2 111936Z 02018KT 14/M07 A3024 RMK A01 T01421070  RH  022%=      5-min Rain = 0
KST2 111937Z 02019KT 14/M07 A3024 RMK A01 T01411072  RH  022%=      5-min Rain = 0
KST2 111938Z 01021KT 14/M07 A3024 RMK A01 T01411070  RH  022%=      5-min Rain = 0
KST2 111939Z 00017G23KT 14/M07 A3024 RMK A01 T01401074  RH  022%=      5-min Rain = 0
KST2 111940Z 00018KT 14/M08 A3024 RMK A01 T01381075  RH  022%=      5-min Rain = 0
KST2 111941Z 36017KT 14/M08 A3024 RMK A01 T01371075  RH  022%=      5-min Rain = 0
KST2 111942Z 35019KT 14/M07 A3024 RMK A01 T01371073  RH  023%=      5-min Rain = 0
KST2 111943Z 35019KT 14/M07 A3024 RMK A01 T01391074  RH  022%=      5-min Rain = 0
KST2 111944Z 35020KT 14/M07 A3023 RMK A01 T01431069  RH  022%=      5-min Rain = 0
KST2 111945Z 35020KT 15/M07 A3023 RMK A01 T01461069  RH  022%=      5-min Rain = 0
KST2 111946Z 35017KT 15/M07 A3023 RMK A01 T01511066  RH  022%=      5-min Rain = 0
KST2 111947Z 36020KT 15/M06 A3023 RMK A01 T01541064  RH  022%=      5-min Rain = 0
KST2 111948Z 00017KT 15/M07 A3023 RMK A01 T01511073  RH  021%=      5-min Rain = 0
KST2 111949Z 35017KT 15/M07 A3023 RMK A01 T01461073  RH  021%=      5-min Rain = 0
KST2 111950Z 35015KT 15/M07 A3023 RMK A01 T01451072  RH  022%=      5-min Rain = 0
KST2 111951Z 00016KT 15/M07 A3023 RMK A01 T01461068  RH  022%=      5-min Rain = 0
KST2 111952Z 00015KT 15/M07 A3023 RMK A01 T01501066  RH  022%=      5-min Rain = 0
KST2 111953Z 01015KT 16/M06 A3023 RMK A01 T01551064  RH  021%=      5-min Rain = 0
KST2 111954Z 02015KT 16/M07 A3023 RMK A01 T01561067  RH  021%=      5-min Rain = 0
KST2 111955Z 01015KT 15/M07 A3023 RMK A01 T01541066  RH  021%=      5-min Rain = 0
KST2 111956Z 01019KT 16/M07 A3023 RMK A01 T01551069  RH  021%=      5-min Rain = 0
KST2 111957Z 01020KT 15/M07 A3023 RMK A01 T01541074  RH  020%=      5-min Rain = 0
KST2 111958Z 01015KT 15/M08 A3023 RMK A01 T01511078  RH  020%=      5-min Rain = 0
KST2 111959Z 01017KT 15/M08 A3023 RMK A01 T01491075  RH  021%=      5-min Rain = 0
KST2 112000Z 01018KT 15/M07 A3023 RMK A01 T01531073  RH  020%=      5-min Rain = 0
KST2 112001Z 01018G24KT 15/M08 A3024 RMK A01 T01531075  RH  020%=      5-min Rain = 0
KST2 112002Z 01015KT 15/M08 A3023 RMK A01 T01521077  RH  020%=      5-min Rain = 0
KST2 112003Z 00019KT 15/M07 A3023 RMK A01 T01511074  RH  020%=      5-min Rain = 0
KST2 112004Z 36017KT 15/M07 A3023 RMK A01 T01531074  RH  020%=      5-min Rain = 0
KST2 112005Z 02018KT 15/M07 A3023 RMK A01 T01521074  RH  020%=      5-min Rain = 0
KST2 112006Z 00016G21KT 15/M07 A3023 RMK A01 T01521074  RH  020%=      5-min Rain = 0
KST2 112007Z 36016KT 15/M07 A3023 RMK A01 T01531072  RH  021%=      5-min Rain = 0
KST2 112008Z 35016KT 16/M07 A3023 RMK A01 T01551069  RH  021%=      5-min Rain = 0
KST2 112009Z 34018KT 16/M07 A3023 RMK A01 T01591067  RH  021%=      5-min Rain = 0
KST2 112010Z 34017KT 16/M07 A3023 RMK A01 T01561074  RH  020%=      5-min Rain = 0
KST2 112011Z 34017KT 15/M08 A3023 RMK A01 T01531076  RH  020%=      5-min Rain = 0
KST2 112012Z 36020KT 16/M07 A3023 RMK A01 T01561071  RH  020%=      5-min Rain = 0
KST2 112013Z 00020KT 16/M08 A3023 RMK A01 T01591076  RH  019%=      5-min Rain = 0
KST2 112014Z 01018KT 16/M08 A3023 RMK A01 T01571078  RH  019%=      5-min Rain = 0
KST2 112015Z 00018KT 16/M08 A3023 RMK A01 T01561080  RH  019%=      5-min Rain = 0
KST2 112016Z 01016KT 15/M09 A3023 RMK A01 T01531085  RH  019%=      5-min Rain = 0
KST2 112017Z 00016G21KT 15/M08 A3023 RMK A01 T01521082  RH  019%=      5-min Rain = 0
KST2 112018Z 36018KT 15/M08 A3023 RMK A01 T01511083  RH  019%=      5-min Rain = 0
KST2 112019Z 00020KT 15/M08 A3023 RMK A01 T01501080  RH  020%=      5-min Rain = 0
KST2 112020Z 35020KT 15/M08 A3023 RMK A01 T01521082  RH  019%=      5-min Rain = 0
KST2 112021Z 34018KT 15/M09 A3023 RMK A01 T01511085  RH  019%=      5-min Rain = 0
KST2 112022Z 35019KT 15/M09 A3023 RMK A01 T01501086  RH  019%=      5-min Rain = 0
KST2 112023Z 34017KT 15/M08 A3023 RMK A01 T01501084  RH  019%=      5-min Rain = 0
KST2 112024Z 35018KT 15/M08 A3023 RMK A01 T01521083  RH  019%=      5-min Rain = 0
KST2 112025Z 01015KT 15/M08 A3023 RMK A01 T01521082  RH  019%=      5-min Rain = 0
KST2 112026Z 00019KT 15/M08 A3023 RMK A01 T01521084  RH  019%=      5-min Rain = 0
KST2 112027Z 36017KT 15/M08 A3023 RMK A01 T01521082  RH  019%=      5-min Rain = 0
KST2 112028Z 36019G24KT 15/M08 A3023 RMK A01 T01491082  RH  019%=      5-min Rain = 0
KST2 112029Z 36023KT 15/M08 A3023 RMK A01 T01501083  RH  019%=      5-min Rain = 0
KST2 112030Z 01021KT 15/M08 A3023 RMK A01 T01501084  RH  019%=      5-min Rain = 0
KST2 112031Z 00018KT 15/M09 A3023 RMK A01 T01501086  RH  019%=      5-min Rain = 0
KST2 112032Z 01019KT 15/M08 A3023 RMK A01 T01491081  RH  020%=      5-min Rain = 0
KST2 112033Z 01021KT 15/M08 A3023 RMK A01 T01521078  RH  020%=      5-min Rain = 0
KST2 112034Z 01022KT 15/M08 A3023 RMK A01 T01531081  RH  019%=      5-min Rain = 0
KST2 112035Z 00022KT 15/M09 A3023 RMK A01 T01531085  RH  019%=      5-min Rain = 0
KST2 112036Z 36020KT 15/M09 A3023 RMK A01 T01521086  RH  019%=      5-min Rain = 0
KST2 112037Z 36018KT 15/M09 A3023 RMK A01 T01491090  RH  018%=      5-min Rain = 0
KST2 112038Z 00016G21KT 15/M09 A3023 RMK A01 T01451088  RH  019%=      5-min Rain = 0
KST2 112039Z 35017G22KT 14/M09 A3023 RMK A01 T01441085  RH  020%=      5-min Rain = 0
KST2 112040Z 36020KT 15/M08 A3023 RMK A01 T01471080  RH  020%=      5-min Rain = 0
KST2 112041Z 35019KT 15/M08 A3023 RMK A01 T01491084  RH  019%=      5-min Rain = 0
KST2 112042Z 00017KT 15/M09 A3023 RMK A01 T01461086  RH  019%=      5-min Rain = 0
KST2 112043Z 35018G24KT 15/M09 A3023 RMK A01 T01451087  RH  019%=      5-min Rain = 0
KST2 112044Z 35019G24KT 15/M09 A3023 RMK A01 T01461088  RH  019%=      5-min Rain = 0
KST2 112045Z 01019KT 15/M09 A3023 RMK A01 T01461087  RH  019%=      5-min Rain = 0
KST2 112046Z 01018KT 14/M09 A3023 RMK A01 T01441089  RH  019%=      5-min Rain = 0
KST2 112047Z 01020KT 14/M09 A3023 RMK A01 T01421089  RH  019%=      5-min Rain = 0
KST2 112048Z 00020KT 14/M09 A3023 RMK A01 T01411090  RH  019%=      5-min Rain = 0
KST2 112049Z 01018KT 14/M09 A3023 RMK A01 T01411090  RH  019%=      5-min Rain = 0
KST2 112050Z 01015KT 14/M09 A3023 RMK A01 T01411091  RH  019%=      5-min Rain = 0
KST2 112051Z 01019KT 14/M09 A3023 RMK A01 T01431089  RH  019%=      5-min Rain = 0
KST2 112052Z 01019KT 15/M09 A3023 RMK A01 T01451091  RH  019%=      5-min Rain = 0
KST2 112053Z 02023G30KT 15/M09 A3023 RMK A01 T01451093  RH  018%=      5-min Rain = 0
KST2 112054Z 35021G28KT 15/M09 A3023 RMK A01 T01471087  RH  019%=      5-min Rain = 0
KST2 112055Z 00019KT 15/M09 A3023 RMK A01 T01491087  RH  019%=      5-min Rain = 0
KST2 112056Z 01020KT 15/M09 A3023 RMK A01 T01501089  RH  018%=      5-min Rain = 0
KST2 112057Z 01022KT 15/M09 A3023 RMK A01 T01481091  RH  018%=      5-min Rain = 0
KST2 112058Z 36020KT 15/M09 A3023 RMK A01 T01481093  RH  018%=      5-min Rain = 0
KST2 112059Z 35017KT 15/M09 A3023 RMK A01 T01451094  RH  018%=      5-min Rain = 0
KST2 112100Z 00015KT 14/M09 A3023 RMK A01 T01441094  RH  018%=      5-min Rain = 0
KST2 112101Z 00018KT 15/M09 A3023 RMK A01 T01451093  RH  018%=      5-min Rain = 0
KST2 112102Z 01022KT 15/M09 A3023 RMK A01 T01461092  RH  018%=      5-min Rain = 0
KST2 112103Z 36020KT 15/M09 A3023 RMK A01 T01461092  RH  018%=      5-min Rain = 0
KST2 112104Z 36017KT 14/M09 A3023 RMK A01 T01441088  RH  019%=      5-min Rain = 0
KST2 112105Z 36019KT 15/M09 A3023 RMK A01 T01451086  RH  019%=      5-min Rain = 0
KST2 112106Z 34018KT 14/M09 A3023 RMK A01 T01441088  RH  019%=      5-min Rain = 0
KST2 112107Z 34016KT 14/M09 A3023 RMK A01 T01441085  RH  020%=      5-min Rain = 0
KST2 112108Z 36014KT 15/M09 A3023 RMK A01 T01451085  RH  020%=      5-min Rain = 0
KST2 112109Z 02016KT 15/M09 A3023 RMK A01 T01451085  RH  019%=      5-min Rain = 0
KST2 112110Z 02020KT 15/M09 A3023 RMK A01 T01481085  RH  019%=      5-min Rain = 0
KST2 112111Z 01018KT 15/M09 A3023 RMK A01 T01491086  RH  019%=      5-min Rain = 0
KST2 112112Z 02018KT 15/M09 A3023 RMK A01 T01471087  RH  019%=      5-min Rain = 0
KST2 112113Z 02018KT 15/M09 A3023 RMK A01 T01471085  RH  019%=      5-min Rain = 0
KST2 112114Z 01015KT 15/M09 A3023 RMK A01 T01481086  RH  019%=      5-min Rain = 0
KST2 112115Z 00015KT 15/M09 A3023 RMK A01 T01481086  RH  019%=      5-min Rain = 0
KST2 112116Z 35017KT 15/M08 A3023 RMK A01 T01521082  RH  019%=      5-min Rain = 0
KST2 112117Z 34017G23KT 15/M09 A3023 RMK A01 T01521089  RH  018%=      5-min Rain = 0
KST2 112118Z 34019G24KT 15/M09 A3023 RMK A01 T01511089  RH  018%=      5-min Rain = 0
KST2 112119Z 35022KT 15/M09 A3023 RMK A01 T01531088  RH  018%=      5-min Rain = 0
KST2 112120Z 34019KT 15/M09 A3023 RMK A01 T01531089  RH  018%=      5-min Rain = 0
KST2 112121Z 34020KT 15/M09 A3023 RMK A01 T01531093  RH  018%=      5-min Rain = 0
KST2 112122Z 35015KT 15/M10 A3023 RMK A01 T01491095  RH  018%=      5-min Rain = 0
KST2 112123Z 35019G25KT 15/M09 A3023 RMK A01 T01481092  RH  018%=      5-min Rain = 0
KST2 112124Z 34021KT 15/M09 A3023 RMK A01 T01511090  RH  018%=      5-min Rain = 0
KST2 112125Z 34020KT 15/M09 A3023 RMK A01 T01511094  RH  017%=      5-min Rain = 0
KST2 112126Z 35018KT 15/M09 A3023 RMK A01 T01491094  RH  018%=      5-min Rain = 0
KST2 112127Z 34019KT 15/M10 A3023 RMK A01 T01481096  RH  018%=      5-min Rain = 0
KST2 112128Z 34018KT 15/M10 A3023 RMK A01 T01451096  RH  018%=      5-min Rain = 0
KST2 112129Z 00018KT 15/M09 A3023 RMK A01 T01471093  RH  018%=      5-min Rain = 0
KST2 112130Z 35019KT 15/M09 A3023 RMK A01 T01471094  RH  018%=      5-min Rain = 0
KST2 112131Z 36017G22KT 15/M09 A3023 RMK A01 T01471094  RH  018%=      5-min Rain = 0
KST2 112132Z 35017KT 15/M09 A3023 RMK A01 T01461092  RH  018%=      5-min Rain = 0
KST2 112133Z 36016KT 15/M09 A3023 RMK A01 T01481090  RH  018%=      5-min Rain = 0
KST2 112134Z 35017G22KT 15/M09 A3022 RMK A01 T01481092  RH  018%=      5-min Rain = 0
KST2 112135Z 36017KT 15/M09 A3022 RMK A01 T01471092  RH  018%=      5-min Rain = 0
KST2 112136Z 00015KT 15/M09 A3022 RMK A01 T01471093  RH  018%=      5-min Rain = 0
KST2 112137Z 34015KT 15/M09 A3022 RMK A01 T01461093  RH  018%=      5-min Rain = 0
KST2 112138Z 34013KT 15/M09 A3022 RMK A01 T01461091  RH  018%=      5-min Rain = 0
KST2 112139Z 35016KT 15/M09 A3022 RMK A01 T01501087  RH  019%=      5-min Rain = 0
KST2 112140Z 34015KT 15/M09 A3022 RMK A01 T01531086  RH  018%=      5-min Rain = 0
KST2 112141Z 34016KT 15/M09 A3022 RMK A01 T01531089  RH  018%=      5-min Rain = 0
KST2 112142Z 36014KT 15/M09 A3022 RMK A01 T01501092  RH  018%=      5-min Rain = 0
KST2 112143Z 01011KT 15/M09 A3022 RMK A01 T01511091  RH  018%=      5-min Rain = 0
KST2 112144Z 36013KT 15/M09 A3022 RMK A01 T01501092  RH  018%=      5-min Rain = 0
KST2 112145Z 35012KT 15/M09 A3022 RMK A01 T01491092  RH  018%=      5-min Rain = 0
KST2 112146Z 35012KT 15/M09 A3021 RMK A01 T01491087  RH  019%=      5-min Rain = 0
KST2 112147Z 34011KT 16/M08 A3021 RMK A01 T01551083  RH  019%=      5-min Rain = 0
KST2 112148Z 34014KT 16/M09 A3021 RMK A01 T01561087  RH  018%=      5-min Rain = 0
KST2 112149Z 01014KT 16/M09 A3022 RMK A01 T01551088  RH  018%=      5-min Rain = 0
KST2 112150Z 00016KT 16/M09 A3021 RMK A01 T01551089  RH  018%=      5-min Rain = 0
KST2 112151Z 35016KT 15/M09 A3021 RMK A01 T01541093  RH  017%=      5-min Rain = 0
KST2 112152Z 01014KT 15/M09 A3021 RMK A01 T01521092  RH  018%=      5-min Rain = 0
KST2 112153Z 01014KT 16/M09 A3021 RMK A01 T01551092  RH  017%=      5-min Rain = 0
KST2 112154Z 36013KT 16/M09 A3021 RMK A01 T01551092  RH  017%=      5-min Rain = 0
KST2 112155Z 35011KT 16/M09 A3021 RMK A01 T01551090  RH  018%=      5-min Rain = 0
KST2 112156Z 34016KT 16/M09 A3021 RMK A01 T01571089  RH  018%=      5-min Rain = 0
KST2 112157Z 34012G17KT 16/M09 A3021 RMK A01 T01571093  RH  017%=      5-min Rain = 0
KST2 112158Z 34015KT 16/M09 A3021 RMK A01 T01571090  RH  017%=      5-min Rain = 0
KST2 112159Z 34019KT 16/M09 A3021 RMK A01 T01621089  RH  017%=      5-min Rain = 0
KST2 112200Z 34018KT 16/M09 A3021 RMK A01 T01611094  RH  016%=      5-min Rain = 0
KST2 112201Z 34014KT 16/M10 A3021 RMK A01 T01571098  RH  016%=      5-min Rain = 0
KST2 112202Z 35013KT 16/M10 A3021 RMK A01 T01551097  RH  017%=      5-min Rain = 0
KST2 112203Z 35016KT 16/M09 A3021 RMK A01 T01561093  RH  017%=      5-min Rain = 0
KST2 112204Z 35016KT 16/M09 A3021 RMK A01 T01591093  RH  017%=      5-min Rain = 0
KST2 112205Z 35017KT 16/M10 A3021 RMK A01 T01601097  RH  016%=      5-min Rain = 0
KST2 112206Z 35015KT 16/M10 A3021 RMK A01 T01561102  RH  016%=      5-min Rain = 0
KST2 112207Z 35014KT 16/M10 A3021 RMK A01 T01551100  RH  016%=      5-min Rain = 0
KST2 112208Z 35011KT 16/M10 A3021 RMK A01 T01561099  RH  016%=      5-min Rain = 0
KST2 112209Z 01013G20KT 16/M10 A3021 RMK A01 T01591096  RH  016%=      5-min Rain = 0
KST2 112210Z 00015KT 16/M10 A3021 RMK A01 T01641098  RH  016%=      5-min Rain = 0
KST2 112211Z 01015KT 16/M10 A3021 RMK A01 T01641102  RH  015%=      5-min Rain = 0
KST2 112212Z 02012KT 16/M11 A3021 RMK A01 T01611107  RH  015%=      5-min Rain = 0
KST2 112213Z 02015KT 16/M10 A3021 RMK A01 T01601104  RH  015%=      5-min Rain = 0
KST2 112214Z 01012KT 16/M11 A3021 RMK A01 T01591107  RH  015%=      5-min Rain = 0
KST2 112215Z 00015KT 16/M10 A3021 RMK A01 T01591103  RH  015%=      5-min Rain = 0
KST2 112216Z 36014KT 16/M10 A3021 RMK A01 T01601103  RH  015%=      5-min Rain = 0
KST2 112217Z 01017KT 16/M10 A3021 RMK A01 T01601104  RH  015%=      5-min Rain = 0
KST2 112218Z 02013KT 16/M11 A3021 RMK A01 T01601108  RH  015%=      5-min Rain = 0
KST2 112219Z 02012KT 16/M11 A3021 RMK A01 T01591107  RH  015%=      5-min Rain = 0
KST2 112220Z 02012KT 16/M10 A3021 RMK A01 T01601104  RH  015%=      5-min Rain = 0
KST2 112221Z 00012KT 16/M10 A3021 RMK A01 T01621104  RH  015%=      5-min Rain = 0
KST2 112222Z 02011KT 16/M10 A3021 RMK A01 T01611103  RH  015%=      5-min Rain = 0
KST2 112223Z 01012KT 16/M10 A3021 RMK A01 T01641100  RH  015%=      5-min Rain = 0
KST2 112224Z 01016G27KT 17/M10 A3021 RMK A01 T01661099  RH  015%=      5-min Rain = 0
KST2 112225Z 36015KT 17/M11 A3021 RMK A01 T01651105  RH  015%=      5-min Rain = 0
KST2 112226Z 01018G23KT 16/M11 A3021 RMK A01 T01641108  RH  014%=      5-min Rain = 0
KST2 112227Z 02020KT 17/M11 A3021 RMK A01 T01661112  RH  014%=      5-min Rain = 0
KST2 112228Z 02016KT 17/M12 A3021 RMK A01 T01651115  RH  014%=      5-min Rain = 0
KST2 112229Z 02019KT 16/M12 A3021 RMK A01 T01631115  RH  014%=      5-min Rain = 0
KST2 112230Z 02019KT 16/M12 A3021 RMK A01 T01621117  RH  014%=      5-min Rain = 0
KST2 112231Z 02018KT 16/M12 A3021 RMK A01 T01591121  RH  013%=      5-min Rain = 0
KST2 112232Z 01018KT 16/M12 A3021 RMK A01 T01581120  RH  014%=      5-min Rain = 0
KST2 112233Z 01017KT 16/M12 A3021 RMK A01 T01571120  RH  014%=      5-min Rain = 0
KST2 112234Z 00016KT 16/M12 A3021 RMK A01 T01571118  RH  014%=      5-min Rain = 0
KST2 112235Z 02017KT 16/M11 A3021 RMK A01 T01591112  RH  014%=      5-min Rain = 0
KST2 112236Z 03017KT 16/M11 A3021 RMK A01 T01641109  RH  014%=      5-min Rain = 0
KST2 112237Z 03018KT 17/M11 A3021 RMK A01 T01651113  RH  014%=      5-min Rain = 0
KST2 112238Z 03016KT 16/M12 A3021 RMK A01 T01621115  RH  014%=      5-min Rain = 0
KST2 112239Z 03014KT 16/M12 A3021 RMK A01 T01621115  RH  014%=      5-min Rain = 0
KST2 112240Z 02014KT 16/M11 A3021 RMK A01 T01621112  RH  014%=      5-min Rain = 0
KST2 112241Z 00013KT 16/M11 A3021 RMK A01 T01631113  RH  014%=      5-min Rain = 0
KST2 112242Z 01016KT 16/M12 A3021 RMK A01 T01641115  RH  014%=      5-min Rain = 0
KST2 112243Z 02018KT 17/M11 A3021 RMK A01 T01651114  RH  014%=      5-min Rain = 0
KST2 112244Z 02016KT 16/M12 A3021 RMK A01 T01641116  RH  013%=      5-min Rain = 0
KST2 112245Z 01015KT 16/M12 A3021 RMK A01 T01631116  RH  014%=      5-min Rain = 0
KST2 112246Z 00015KT 16/M11 A3021 RMK A01 T01641113  RH  014%=      5-min Rain = 0
KST2 112247Z 01017KT 17/M11 A3021 RMK A01 T01651114  RH  014%=      5-min Rain = 0
KST2 112248Z 01017KT 16/M12 A3021 RMK A01 T01641117  RH  013%=      5-min Rain = 0
KST2 112249Z 02019KT 16/M12 A3021 RMK A01 T01641117  RH  014%=      5-min Rain = 0
KST2 112250Z 02019KT 16/M12 A3021 RMK A01 T01631120  RH  013%=      5-min Rain = 0
KST2 112251Z 02018KT 16/M12 A3021 RMK A01 T01631117  RH  014%=      5-min Rain = 0
KST2 112252Z 02017KT 17/M12 A3022 RMK A01 T01651116  RH  013%=      5-min Rain = 0
KST2 112253Z 03014KT 16/M12 A3021 RMK A01 T01611120  RH  013%=      5-min Rain = 0
KST2 112254Z 03016KT 16/M12 A3022 RMK A01 T01601119  RH  014%=      5-min Rain = 0
KST2 112255Z 02014G20KT 16/M12 A3022 RMK A01 T01601119  RH  014%=      5-min Rain = 0
KST2 112256Z 01016KT 16/M12 A3021 RMK A01 T01601118  RH  014%=      5-min Rain = 0
KST2 112257Z 01015KT 16/M12 A3022 RMK A01 T01611118  RH  014%=      5-min Rain = 0
KST2 112258Z 01017KT 16/M11 A3022 RMK A01 T01641114  RH  014%=      5-min Rain = 0
KST2 112259Z 01014KT 16/M12 A3022 RMK A01 T01641116  RH  014%=      5-min Rain = 0
KST2 112300Z 01013KT 16/M12 A3022 RMK A01 T01641116  RH  014%=      5-min Rain = 0
KST2 112301Z 01013KT 17/M11 A3022 RMK A01 T01661112  RH  014%=      5-min Rain = 0
KST2 112302Z 02013KT 17/M12 A3022 RMK A01 T01661115  RH  013%=      5-min Rain = 0
KST2 112303Z 01017KT 16/M12 A3022 RMK A01 T01641116  RH  014%=      5-min Rain = 0
KST2 112304Z 01017KT 16/M12 A3022 RMK A01 T01631117  RH  014%=      5-min Rain = 0
KST2 112305Z 01018KT 16/M12 A3022 RMK A01 T01621119  RH  013%=      5-min Rain = 0
KST2 112306Z 01017KT 16/M12 A3022 RMK A01 T01601118  RH  014%=      5-min Rain = 0
KST2 112307Z 01015KT 16/M12 A3022 RMK A01 T01601117  RH  014%=      5-min Rain = 0
KST2 112308Z 02018KT 16/M12 A3022 RMK A01 T01601116  RH  014%=      5-min Rain = 0
KST2 112309Z 01016KT 16/M11 A3022 RMK A01 T01611114  RH  014%=      5-min Rain = 0
KST2 112310Z 02014KT 16/M12 A3022 RMK A01 T01611115  RH  014%=      5-min Rain = 0
KST2 112311Z 01016KT 16/M11 A3022 RMK A01 T01611114  RH  014%=      5-min Rain = 0
KST2 112312Z 01017KT 16/M12 A3022 RMK A01 T01601116  RH  014%=      5-min Rain = 0
KST2 112313Z 02017KT 16/M11 A3022 RMK A01 T01611113  RH  014%=      5-min Rain = 0
KST2 112314Z 02017KT 16/M11 A3022 RMK A01 T01611112  RH  014%=      5-min Rain = 0
KST2 112315Z 02017KT 16/M12 A3022 RMK A01 T01611116  RH  014%=      5-min Rain = 0
KST2 112316Z 02016KT 16/M12 A3022 RMK A01 T01591115  RH  014%=      5-min Rain = 0
KST2 112317Z 02017KT 16/M11 A3022 RMK A01 T01601113  RH  014%=      5-min Rain = 0
KST2 112318Z 01016KT 16/M11 A3022 RMK A01 T01601113  RH  014%=      5-min Rain = 0
KST2 112319Z 01019KT 16/M11 A3022 RMK A01 T01601113  RH  014%=      5-min Rain = 0
KST2 112320Z 01017KT 16/M11 A3022 RMK A01 T01601113  RH  014%=      5-min Rain = 0
KST2 112321Z 01018KT 16/M11 A3022 RMK A01 T01611113  RH  014%=      5-min Rain = 0
KST2 112322Z 01017G22KT 16/M12 A3022 RMK A01 T01611116  RH  014%=      5-min Rain = 0
KST2 112323Z 00018KT 16/M11 A3022 RMK A01 T01611114  RH  014%=      5-min Rain = 0
KST2 112324Z 36018KT 16/M12 A3022 RMK A01 T01611118  RH  014%=      5-min Rain = 0
KST2 112325Z 36016KT 16/M12 A3022 RMK A01 T01601116  RH  014%=      5-min Rain = 0
KST2 112326Z 36014KT 16/M12 A3022 RMK A01 T01591117  RH  014%=      5-min Rain = 0
KST2 112327Z 36014KT 16/M12 A3022 RMK A01 T01581117  RH  014%=      5-min Rain = 0
KST2 112328Z 00014G19KT 16/M12 A3022 RMK A01 T01571115  RH  014%=      5-min Rain = 0
KST2 112329Z 36015KT 16/M12 A3022 RMK A01 T01581116  RH  014%=      5-min Rain = 0
KST2 112330Z 36016KT 16/M12 A3022 RMK A01 T01591115  RH  014%=      5-min Rain = 0
KST2 112331Z 01016KT 16/M11 A3023 RMK A01 T01591113  RH  014%=      5-min Rain = 0
KST2 112332Z 01015KT 16/M11 A3023 RMK A01 T01591113  RH  014%=      5-min Rain = 0
KST2 112333Z 01015KT 16/M12 A3023 RMK A01 T01591115  RH  014%=      5-min Rain = 0
KST2 112334Z 36015KT 16/M12 A3023 RMK A01 T01581115  RH  014%=      5-min Rain = 0
KST2 112335Z 35015KT 16/M11 A3023 RMK A01 T01561113  RH  015%=      5-min Rain = 0
KST2 112336Z 35015KT 16/M11 A3022 RMK A01 T01561114  RH  015%=      5-min Rain = 0
KST2 112337Z 01013KT 16/M11 A3023 RMK A01 T01551114  RH  015%=      5-min Rain = 0
KST2 112338Z 01012KT 16/M11 A3023 RMK A01 T01551114  RH  015%=      5-min Rain = 0
KST2 112339Z 01013KT 15/M11 A3023 RMK A01 T01541112  RH  015%=      5-min Rain = 0
KST2 112340Z 01014KT 15/M11 A3023 RMK A01 T01541112  RH  015%=      5-min Rain = 0
KST2 112341Z 01013KT 15/M11 A3023 RMK A01 T01531112  RH  015%=      5-min Rain = 0
KST2 112342Z 02014KT 15/M11 A3023 RMK A01 T01521110  RH  015%=      5-min Rain = 0
KST2 112343Z 01013KT 15/M11 A3023 RMK A01 T01521109  RH  016%=      5-min Rain = 0
KST2 112344Z 01012KT 15/M11 A3023 RMK A01 T01511108  RH  016%=      5-min Rain = 0
KST2 112345Z 01011KT 15/M11 A3023 RMK A01 T01511106  RH  016%=      5-min Rain = 0
KST2 112346Z 00012KT 15/M11 A3023 RMK A01 T01511108  RH  016%=      5-min Rain = 0
KST2 112347Z 01010KT 15/M11 A3023 RMK A01 T01511107  RH  016%=      5-min Rain = 0
KST2 112348Z 01013KT 15/M11 A3023 RMK A01 T01511105  RH  016%=      5-min Rain = 0
KST2 112349Z 02014KT 15/M10 A3023 RMK A01 T01511104  RH  016%=      5-min Rain = 0
KST2 112350Z 02015KT 15/M10 A3023 RMK A01 T01501104  RH  016%=      5-min Rain = 0
KST2 112351Z 01013KT 15/M11 A3023 RMK A01 T01501106  RH  016%=      5-min Rain = 0
KST2 112352Z 01012KT 15/M11 A3023 RMK A01 T01501105  RH  016%=      5-min Rain = 0
KST2 112353Z 01012KT 15/M11 A3023 RMK A01 T01491105  RH  016%=      5-min Rain = 0
KST2 112354Z 02011KT 15/M10 A3023 RMK A01 T01491102  RH  017%=      5-min Rain = 0
KST2 112355Z 03011KT 15/M10 A3023 RMK A01 T01501099  RH  017%=      5-min Rain = 0
KST2 112356Z 02012KT 15/M10 A3023 RMK A01 T01501098  RH  017%=      5-min Rain = 0
KST2 112357Z 02011KT 15/M10 A3023 RMK A01 T01501099  RH  017%=      5-min Rain = 0
KST2 112358Z 01010KT 15/M10 A3023 RMK A01 T01501099  RH  017%=      5-min Rain = 0
KST2 112359Z 01012KT 15/M10 A3023 RMK A01 T01511100  RH  017%=      5-min Rain = 0
KST2 120000Z 01011KT 15/M10 A3023 RMK A01 T01511098  RH  017%=      5-min Rain = 0
KST2 120001Z 01012KT 15/M10 A3023 RMK A01 T01511099  RH  017%=      5-min Rain = 0
KST2 120002Z 01012KT 15/M10 A3023 RMK A01 T01511098  RH  017%=      5-min Rain = 0
KST2 120003Z 01011KT 15/M09 A3023 RMK A01 T01511094  RH  017%=      5-min Rain = 0
KST2 120004Z 02011KT 15/M09 A3023 RMK A01 T01521094  RH  017%=      5-min Rain = 0
KST2 120005Z 02012KT 15/M09 A3023 RMK A01 T01521093  RH  017%=      5-min Rain = 0
KST2 120006Z 02013KT 15/M09 A3024 RMK A01 T01531092  RH  018%=      5-min Rain = 0
KST2 120007Z 02013KT 15/M09 A3024 RMK A01 T01511091  RH  018%=      5-min Rain = 0
KST2 120008Z 03013KT 15/M09 A3024 RMK A01 T01511087  RH  019%=      5-min Rain = 0
KST2 120009Z 03014KT 15/M08 A3024 RMK A01 T01511081  RH  019%=      5-min Rain = 0
KST2 120010Z 02014KT 15/M08 A3024 RMK A01 T01501077  RH  020%=      5-min Rain = 0
KST2 120011Z 02015KT 15/M08 A3024 RMK A01 T01501075  RH  020%=      5-min Rain = 0
KST2 120012Z 02015KT 15/M07 A3024 RMK A01 T01491074  RH  021%=      5-min Rain = 0
KST2 120013Z 02016KT 15/M07 A3024 RMK A01 T01491071  RH  021%=      5-min Rain = 0
KST2 120014Z 02017KT 15/M07 A3024 RMK A01 T01481068  RH  022%=      5-min Rain = 0
KST2 120015Z 02014KT 15/M07 A3024 RMK A01 T01471066  RH  022%=      5-min Rain = 0
KST2 120016Z 01013KT 15/M07 A3024 RMK A01 T01471065  RH  023%=      5-min Rain = 0
KST2 120017Z 02017KT 15/M06 A3024 RMK A01 T01471064  RH  023%=      5-min Rain = 0
KST2 120018Z 02016KT 15/M07 A3024 RMK A01 T01461065  RH  023%=      5-min Rain = 0
KST2 120019Z 02016KT 15/M07 A3024 RMK A01 T01451066  RH  023%=      5-min Rain = 0
KST2 120020Z 02016KT 15/M07 A3024 RMK A01 T01451066  RH  023%=      5-min Rain = 0
KST2 120021Z 02014KT 14/M07 A3024 RMK A01 T01441065  RH  023%=      5-min Rain = 0
KST2 120022Z 02014KT 14/M06 A3024 RMK A01 T01441064  RH  023%=      5-min Rain = 0
KST2 120023Z 02016KT 14/M07 A3024 RMK A01 T01441065  RH  023%=      5-min Rain = 0
KST2 120024Z 03014KT 14/M07 A3024 RMK A01 T01431066  RH  023%=      5-min Rain = 0
KST2 120025Z 03014KT 14/M07 A3024 RMK A01 T01431066  RH  023%=      5-min Rain = 0
KST2 120026Z 03015KT 14/M07 A3024 RMK A01 T01431066  RH  023%=      5-min Rain = 0
KST2 120027Z 02015KT 14/M07 A3024 RMK A01 T01421066  RH  023%=      5-min Rain = 0
KST2 120028Z 02013KT 14/M07 A3025 RMK A01 T01411065  RH  023%=      5-min Rain = 0
KST2 120029Z 02012KT 14/M06 A3025 RMK A01 T01411064  RH  024%=      5-min Rain = 0
KST2 120030Z 01012KT 14/M07 A3025 RMK A01 T01401065  RH  024%=      5-min Rain = 0
KST2 120031Z 01012KT 14/M07 A3025 RMK A01 T01401069  RH  023%=      5-min Rain = 0
KST2 120032Z 01013KT 14/M07 A3025 RMK A01 T01401069  RH  023%=      5-min Rain = 0
KST2 120033Z 01015KT 14/M08 A3025 RMK A01 T01401076  RH  022%=      5-min Rain = 0
KST2 120034Z 01013KT 14/M08 A3025 RMK A01 T01401078  RH  021%=      5-min Rain = 0
KST2 120035Z 01013KT 14/M08 A3025 RMK A01 T01401078  RH  021%=      5-min Rain = 0
KST2 120036Z 01011KT 14/M08 A3025 RMK A01 T01401077  RH  021%=      5-min Rain = 0
KST2 120037Z 00013KT 14/M08 A3025 RMK A01 T01391075  RH  022%=      5-min Rain = 0
KST2 120038Z 01013KT 14/M07 A3025 RMK A01 T01391074  RH  022%=      5-min Rain = 0
KST2 120039Z 01012KT 14/M08 A3025 RMK A01 T01381075  RH  022%=      5-min Rain = 0
KST2 120040Z 01011KT 14/M07 A3025 RMK A01 T01381074  RH  022%=      5-min Rain = 0
KST2 120041Z 01010KT 14/M07 A3025 RMK A01 T01371074  RH  022%=      5-min Rain = 0
KST2 120042Z 01011KT 14/M07 A3025 RMK A01 T01371073  RH  023%=      5-min Rain = 0
KST2 120043Z 02011KT 14/M07 A3025 RMK A01 T01361072  RH  023%=      5-min Rain = 0
KST2 120044Z 01012KT 14/M07 A3025 RMK A01 T01361072  RH  023%=      5-min Rain = 0
KST2 120045Z 01012KT 14/M07 A3025 RMK A01 T01361071  RH  023%=      5-min Rain = 0
KST2 120046Z 01013KT 14/M07 A3025 RMK A01 T01361070  RH  023%=      5-min Rain = 0
KST2 120047Z 01013KT 14/M07 A3025 RMK A01 T01361069  RH  023%=      5-min Rain = 0
KST2 120048Z 01012KT 14/M07 A3025 RMK A01 T01361068  RH  024%=      5-min Rain = 0
KST2 120049Z 01012KT 14/M07 A3025 RMK A01 T01351068  RH  024%=      5-min Rain = 0
KST2 120050Z 01012KT 13/M07 A3025 RMK A01 T01341068  RH  024%=      5-min Rain = 0
KST2 120051Z 01012KT 13/M07 A3025 RMK A01 T01341067  RH  024%=      5-min Rain = 0
KST2 120052Z 01013KT 13/M07 A3025 RMK A01 T01341067  RH  024%=      5-min Rain = 0
KST2 120053Z 01012KT 13/M07 A3025 RMK A01 T01341066  RH  024%=      5-min Rain = 0
KST2 120054Z 01012KT 13/M07 A3025 RMK A01 T01331065  RH  025%=      5-min Rain = 0
KST2 120055Z 01012KT 13/M07 A3025 RMK A01 T01331065  RH  025%=      5-min Rain = 0
KST2 120056Z 01012KT 13/M06 A3025 RMK A01 T01331064  RH  025%=      5-min Rain = 0
KST2 120057Z 01012KT 13/M06 A3025 RMK A01 T01331064  RH  025%=      5-min Rain = 0
KST2 120058Z 01011KT 13/M07 A3025 RMK A01 T01321065  RH  025%=      5-min Rain = 0
KST2 120059Z 01011KT 13/M07 A3025 RMK A01 T01311065  RH  025%=      5-min Rain = 0
KST2 120100Z 01012KT 13/M06 A3025 RMK A01 T01311064  RH  025%=      5-min Rain = 0
KST2 120101Z 01012KT 13/M06 A3025 RMK A01 T01311063  RH  025%=      5-min Rain = 0
KST2 120102Z 01011KT 13/M06 A3026 RMK A01 T01311063  RH  025%=      5-min Rain = 0
KST2 120103Z 01011KT 13/M06 A3026 RMK A01 T01311063  RH  025%=      5-min Rain = 0
KST2 120104Z 01011KT 13/M06 A3026 RMK A01 T01301063  RH  025%=      5-min Rain = 0
KST2 120105Z 01010KT 13/M06 A3026 RMK A01 T01301063  RH  026%=      5-min Rain = 0
KST2 120106Z 01011KT 13/M06 A3026 RMK A01 T01291063  RH  026%=      5-min Rain = 0
KST2 120107Z 01012KT 13/M06 A3026 RMK A01 T01291062  RH  026%=      5-min Rain = 0
KST2 120108Z 01010KT 13/M06 A3026 RMK A01 T01291061  RH  026%=      5-min Rain = 0
KST2 120109Z 01010KT 13/M06 A3026 RMK A01 T01291061  RH  026%=      5-min Rain = 0
KST2 120110Z 01010KT 13/M06 A3026 RMK A01 T01281062  RH  026%=      5-min Rain = 0
KST2 120111Z 01011KT 13/M06 A3026 RMK A01 T01281061  RH  026%=      5-min Rain = 0
KST2 120112Z 01010KT 13/M06 A3026 RMK A01 T01281060  RH  026%=      5-min Rain = 0
KST2 120113Z 01010KT 13/M06 A3026 RMK A01 T01271061  RH  026%=      5-min Rain = 0
KST2 120114Z 01009KT 13/M06 A3026 RMK A01 T01271060  RH  027%=      5-min Rain = 0
KST2 120115Z 01010KT 13/M06 A3026 RMK A01 T01261060  RH  027%=      5-min Rain = 0
KST2 120116Z 01009KT 13/M06 A3026 RMK A01 T01261060  RH  027%=      5-min Rain = 0
KST2 120117Z 01009KT 13/M06 A3026 RMK A01 T01251060  RH  027%=      5-min Rain = 0
KST2 120118Z 01009KT 13/M06 A3026 RMK A01 T01251060  RH  027%=      5-min Rain = 0
KST2 120119Z 01009KT 12/M06 A3026 RMK A01 T01241060  RH  027%=      5-min Rain = 0
KST2 120120Z 01009KT 12/M06 A3026 RMK A01 T01241060  RH  027%=      5-min Rain = 0
KST2 120121Z 01009KT 12/M06 A3026 RMK A01 T01241060  RH  027%=      5-min Rain = 0
KST2 120122Z 01009KT 12/M06 A3026 RMK A01 T01241059  RH  027%=      5-min Rain = 0
KST2 120123Z 01009KT 12/M06 A3026 RMK A01 T01231059  RH  027%=      5-min Rain = 0
KST2 120124Z 01009KT 12/M06 A3026 RMK A01 T01231059  RH  028%=      5-min Rain = 0
KST2 120125Z 01008KT 12/M06 A3026 RMK A01 T01231059  RH  028%=      5-min Rain = 0
KST2 120126Z 01009KT 12/M06 A3026 RMK A01 T01221059  RH  028%=      5-min Rain = 0
KST2 120127Z 02009KT 12/M06 A3026 RMK A01 T01221058  RH  028%=      5-min Rain = 0
KST2 120128Z 02009KT 12/M06 A3027 RMK A01 T01221057  RH  028%=      5-min Rain = 0
KST2 120129Z 02009KT 12/M06 A3027 RMK A01 T01221057  RH  028%=      5-min Rain = 0
KST2 120130Z 02009KT 12/M06 A3027 RMK A01 T01221057  RH  028%=      5-min Rain = 0
KST2 120131Z 01009KT 12/M06 A3027 RMK A01 T01211057  RH  028%=      5-min Rain = 0
KST2 120132Z 02009KT 12/M06 A3027 RMK A01 T01211056  RH  029%=      5-min Rain = 0
KST2 120133Z 02009KT 12/M06 A3027 RMK A01 T01211056  RH  029%=      5-min Rain = 0
KST2 120134Z 02009KT 12/M06 A3027 RMK A01 T01211056  RH  029%=      5-min Rain = 0
KST2 120135Z 02009KT 12/M06 A3027 RMK A01 T01211055  RH  029%=      5-min Rain = 0
KST2 120136Z 02009KT 12/M05 A3027 RMK A01 T01201054  RH  029%=      5-min Rain = 0
KST2 120137Z 02009KT 12/M05 A3027 RMK A01 T01201054  RH  029%=      5-min Rain = 0
KST2 120138Z 02009KT 12/M05 A3027 RMK A01 T01201054  RH  029%=      5-min Rain = 0
KST2 120139Z 02009KT 12/M05 A3027 RMK A01 T01191054  RH  029%=      5-min Rain = 0
KST2 120140Z 02008KT 12/M06 A3027 RMK A01 T01191055  RH  029%=      5-min Rain = 0
KST2 120141Z 02008KT 12/M05 A3027 RMK A01 T01191054  RH  029%=      5-min Rain = 0
KST2 120142Z 02008KT 12/M05 A3027 RMK A01 T01181054  RH  030%=      5-min Rain = 0
KST2 120143Z 02009KT 12/M05 A3027 RMK A01 T01181053  RH  030%=      5-min Rain = 0
KST2 120144Z 02008KT 12/M05 A3027 RMK A01 T01171053  RH  030%=      5-min Rain = 0
KST2 120145Z 03008KT 12/M05 A3028 RMK A01 T01171053  RH  030%=      5-min Rain = 0
KST2 120146Z 02008KT 12/M05 A3028 RMK A01 T01171053  RH  030%=      5-min Rain = 0
KST2 120147Z 02009KT 12/M05 A3028 RMK A01 T01161052  RH  030%=      5-min Rain = 0
KST2 120148Z 02007KT 12/M05 A3028 RMK A01 T01161053  RH  030%=      5-min Rain = 0
KST2 120149Z 02008KT 12/M05 A3028 RMK A01 T01151053  RH  030%=      5-min Rain = 0
KST2 120150Z 02008KT 12/M05 A3028 RMK A01 T01151052  RH  031%=      5-min Rain = 0
KST2 120151Z 02008KT 12/M05 A3028 RMK A01 T01151052  RH  031%=      5-min Rain = 0
KST2 120152Z 02008KT 11/M05 A3028 RMK A01 T01141051  RH  031%=      5-min Rain = 0
KST2 120153Z 03008KT 11/M05 A3028 RMK A01 T01131051  RH  031%=      5-min Rain = 0
KST2 120154Z 03009KT 11/M05 A3028 RMK A01 T01131051  RH  031%=      5-min Rain = 0
KST2 120155Z 02008KT 11/M05 A3028 RMK A01 T01131050  RH  032%=      5-min Rain = 0
KST2 120156Z 02009KT 11/M05 A3028 RMK A01 T01121050  RH  032%=      5-min Rain = 0
KST2 120157Z 03009KT 11/M05 A3028 RMK A01 T01121049  RH  032%=      5-min Rain = 0
KST2 120158Z 02008KT 11/M05 A3028 RMK A01 T01121049  RH  032%=      5-min Rain = 0
KST2 120159Z 02009KT 11/M05 A3028 RMK A01 T01121049  RH  032%=      5-min Rain = 0
KST2 120200Z 02009KT 11/M05 A3028 RMK A01 T01111049  RH  032%=      5-min Rain = 0
KST2 120201Z 02009KT 11/M05 A3028 RMK A01 T01101049  RH  032%=      5-min Rain = 0
KST2 120202Z 02008KT 11/M05 A3028 RMK A01 T01101048  RH  033%=      5-min Rain = 0
KST2 120203Z 03008KT 11/M05 A3028 RMK A01 T01111048  RH  033%=      5-min Rain = 0
KST2 120204Z 03008KT 11/M05 A3029 RMK A01 T01101048  RH  033%=      5-min Rain = 0
KST2 120205Z 03009KT 11/M05 A3029 RMK A01 T01091048  RH  033%=      5-min Rain = 0
KST2 120206Z 03008KT 11/M05 A3029 RMK A01 T01091047  RH  033%=      5-min Rain = 0
KST2 120207Z 03008KT 11/M05 A3029 RMK A01 T01091047  RH  033%=      5-min Rain = 0
KST2 120208Z 03008KT 11/M05 A3029 RMK A01 T01091048  RH  033%=      5-min Rain = 0
KST2 120209Z 03008KT 11/M05 A3029 RMK A01 T01081047  RH  033%=      5-min Rain = 0
KST2 120210Z 03008KT 11/M05 A3029 RMK A01 T01071048  RH  033%=      5-min Rain = 0
KST2 120211Z 03008KT 11/M05 A3029 RMK A01 T01071047  RH  034%=      5-min Rain = 0
KST2 120212Z 03009KT 11/M05 A3029 RMK A01 T01061047  RH  034%=      5-min Rain = 0
KST2 120213Z 03008KT 11/M05 A3029 RMK A01 T01061046  RH  034%=      5-min Rain = 0
KST2 120214Z 03009KT 11/M05 A3029 RMK A01 T01061046  RH  034%=      5-min Rain = 0
KST2 120215Z 03008KT 11/M05 A3029 RMK A01 T01071045  RH  034%=      5-min Rain = 0
KST2 120216Z 03008KT 11/M05 A3029 RMK A01 T01071045  RH  034%=      5-min Rain = 0
KST2 120217Z 03008KT 11/M04 A3029 RMK A01 T01071044  RH  034%=      5-min Rain = 0
KST2 120218Z 03008KT 11/M05 A3029 RMK A01 T01071045  RH  034%=      5-min Rain = 0
KST2 120219Z 03008KT 11/M04 A3029 RMK A01 T01071044  RH  034%=      5-min Rain = 0
KST2 120220Z 03008KT 11/M04 A3029 RMK A01 T01071044  RH  034%=      5-min Rain = 0
KST2 120221Z 03008KT 11/M04 A3029 RMK A01 T01061044  RH  035%=      5-min Rain = 0
KST2 120222Z 03008KT 11/M04 A303 RMK A01 T01061043  RH  035%=      5-min Rain = 0
KST2 120223Z 03008KT 11/M04 A303 RMK A01 T01061043  RH  035%=      5-min Rain = 0
KST2 120224Z 03007KT 11/M04 A303 RMK A01 T01051043  RH  035%=      5-min Rain = 0
KST2 120225Z 03008KT 10/M04 A303 RMK A01 T01041043  RH  035%=      5-min Rain = 0
KST2 120226Z 03008KT 10/M04 A303 RMK A01 T01031043  RH  035%=      5-min Rain = 0
KST2 120227Z 03008KT 10/M04 A303 RMK A01 T01031042  RH  036%=      5-min Rain = 0
KST2 120228Z 03009KT 10/M04 A303 RMK A01 T01031040  RH  036%=      5-min Rain = 0
KST2 120229Z 03009KT 10/M04 A303 RMK A01 T01041039  RH  036%=      5-min Rain = 0
KST2 120230Z 03009KT 11/M04 A303 RMK A01 T01051038  RH  037%=      5-min Rain = 0
KST2 120231Z 03009KT 11/M04 A303 RMK A01 T01051037  RH  037%=      5-min Rain = 0
KST2 120232Z 03009KT 11/M04 A303 RMK A01 T01051036  RH  037%=      5-min Rain = 0
KST2 120233Z 03009KT 11/M04 A303 RMK A01 T01051035  RH  037%=      5-min Rain = 0
KST2 120234Z 04009KT 11/M03 A303 RMK A01 T01061034  RH  037%=      5-min Rain = 0
KST2 120235Z 04010KT 11/M03 A303 RMK A01 T01061034  RH  037%=      5-min Rain = 0
KST2 120236Z 04010KT 11/M03 A303 RMK A01 T01071033  RH  037%=      5-min Rain = 0
KST2 120237Z 04011KT 11/M03 A303 RMK A01 T01081033  RH  037%=      5-min Rain = 0
KST2 120238Z 04011KT 11/M03 A303 RMK A01 T01081032  RH  037%=      5-min Rain = 0
KST2 120239Z 04010KT 11/M03 A303 RMK A01 T01081032  RH  037%=      5-min Rain = 0
KST2 120240Z 04010KT 11/M03 A303 RMK A01 T01081032  RH  037%=      5-min Rain = 0
KST2 120241Z 04010KT 11/M03 A303 RMK A01 T01081032  RH  037%=      5-min Rain = 0
KST2 120242Z 04010KT 11/M03 A303 RMK A01 T01081031  RH  038%=      5-min Rain = 0
KST2 120243Z 04009KT 11/M03 A303 RMK A01 T01081031  RH  038%=      5-min Rain = 0
KST2 120244Z 05009KT 11/M03 A303 RMK A01 T01081031  RH  038%=      5-min Rain = 0
KST2 120245Z 04010KT 11/M03 A303 RMK A01 T01071032  RH  038%=      5-min Rain = 0
KST2 120246Z 04010KT 11/M03 A303 RMK A01 T01071032  RH  038%=      5-min Rain = 0
KST2 120247Z 04009KT 11/M03 A3031 RMK A01 T01071032  RH  038%=      5-min Rain = 0
KST2 120248Z 04010KT 11/M03 A3031 RMK A01 T01061032  RH  038%=      5-min Rain = 0
KST2 120249Z 04010KT 11/M03 A3031 RMK A01 T01051032  RH  038%=      5-min Rain = 0
KST2 120250Z 04011KT 11/M03 A3031 RMK A01 T01051031  RH  038%=      5-min Rain = 0
KST2 120251Z 04009KT 11/M03 A3031 RMK A01 T01051031  RH  038%=      5-min Rain = 0
KST2 120252Z 04011KT 11/M03 A3031 RMK A01 T01051032  RH  038%=      5-min Rain = 0
KST2 120253Z 04010KT 11/M03 A3031 RMK A01 T01051031  RH  038%=      5-min Rain = 0
KST2 120254Z 04010KT 10/M03 A3031 RMK A01 T01041031  RH  038%=      5-min Rain = 0
KST2 120255Z 04010KT 10/M03 A3031 RMK A01 T01041031  RH  039%=      5-min Rain = 0
KST2 120256Z 04010KT 10/M03 A3031 RMK A01 T01031032  RH  039%=      5-min Rain = 0
KST2 120257Z 04010KT 10/M03 A3031 RMK A01 T01031031  RH  039%=      5-min Rain = 0
KST2 120258Z 04010KT 10/M03 A3031 RMK A01 T01031031  RH  039%=      5-min Rain = 0
KST2 120259Z 04010KT 10/M03 A3031 RMK A01 T01021031  RH  039%=      5-min Rain = 0
KST2 120300Z 04009KT 10/M03 A3031 RMK A01 T01021031  RH  039%=      5-min Rain = 0
KST2 120301Z 04010KT 10/M03 A3031 RMK A01 T01011031  RH  039%=      5-min Rain = 0
KST2 120302Z 04010KT 10/M03 A3031 RMK A01 T01011031  RH  039%=      5-min Rain = 0
KST2 120303Z 04010KT 10/M03 A3031 RMK A01 T01011031  RH  039%=      5-min Rain = 0
KST2 120304Z 04009KT 10/M03 A3031 RMK A01 T01001031  RH  039%=      5-min Rain = 0
KST2 120305Z 04010KT 10/M03 A3031 RMK A01 T01001031  RH  040%=      5-min Rain = 0
KST2 120306Z 04010KT 10/M03 A3031 RMK A01 T01001030  RH  040%=      5-min Rain = 0
KST2 120307Z 04010KT 10/M03 A3031 RMK A01 T01001030  RH  040%=      5-min Rain = 0
KST2 120308Z 04010KT 10/M03 A3031 RMK A01 T01001031  RH  040%=      5-min Rain = 0
KST2 120309Z 04009KT 10/M03 A3031 RMK A01 T00991030  RH  040%=      5-min Rain = 0
KST2 120310Z 04009KT 10/M03 A3031 RMK A01 T00981031  RH  040%=      5-min Rain = 0
KST2 120311Z 04010KT 10/M03 A3031 RMK A01 T00981031  RH  040%=      5-min Rain = 0
KST2 120312Z 04010KT 10/M03 A3031 RMK A01 T00971031  RH  040%=      5-min Rain = 0
KST2 120313Z 04011KT 10/M03 A3031 RMK A01 T00981030  RH  040%=      5-min Rain = 0
KST2 120314Z 04011KT 10/M03 A3031 RMK A01 T00971030  RH  040%=      5-min Rain = 0
KST2 120315Z 04011KT 10/M03 A3031 RMK A01 T00971031  RH  040%=      5-min Rain = 0
KST2 120316Z 04011KT 10/M03 A3031 RMK A01 T00981030  RH  041%=      5-min Rain = 0
KST2 120317Z 04010KT 10/M03 A3031 RMK A01 T00981030  RH  041%=      5-min Rain = 0
KST2 120318Z 04010KT 10/M03 A3031 RMK A01 T00981030  RH  041%=      5-min Rain = 0
KST2 120319Z 04010KT 10/M03 A3031 RMK A01 T00971030  RH  041%=      5-min Rain = 0
KST2 120320Z 04010KT 10/M03 A3031 RMK A01 T00971030  RH  041%=      5-min Rain = 0
KST2 120321Z 04010KT 10/M03 A3031 RMK A01 T00981030  RH  041%=      5-min Rain = 0
KST2 120322Z 04010KT 10/M03 A3031 RMK A01 T00971030  RH  041%=      5-min Rain = 0
KST2 120323Z 04010KT 10/M03 A3031 RMK A01 T00971030  RH  041%=      5-min Rain = 0
KST2 120324Z 04010KT 10/M03 A3031 RMK A01 T00971030  RH  041%=      5-min Rain = 0
KST2 120325Z 04010KT 10/M03 A3031 RMK A01 T00971030  RH  041%=      5-min Rain = 0
KST2 120326Z 04009KT 10/M03 A3031 RMK A01 T00961030  RH  041%=      5-min Rain = 0
KST2 120327Z 04009KT 10/M03 A3031 RMK A01 T00951030  RH  041%=      5-min Rain = 0
KST2 120328Z 04009KT 10/M03 A3031 RMK A01 T00951030  RH  041%=      5-min Rain = 0
KST2 120329Z 04009KT 09/M03 A3031 RMK A01 T00941030  RH  041%=      5-min Rain = 0
KST2 120330Z 04009KT 09/M03 A3031 RMK A01 T00941029  RH  042%=      5-min Rain = 0
KST2 120331Z 04009KT 09/M03 A3031 RMK A01 T00941030  RH  042%=      5-min Rain = 0
KST2 120332Z 04009KT 09/M03 A3031 RMK A01 T00941030  RH  042%=      5-min Rain = 0
KST2 120333Z 04009KT 09/M03 A3031 RMK A01 T00931029  RH  042%=      5-min Rain = 0
KST2 120334Z 04009KT 09/M03 A3031 RMK A01 T00931029  RH  042%=      5-min Rain = 0
KST2 120335Z 04009KT 09/M03 A3031 RMK A01 T00931029  RH  042%=      5-min Rain = 0
KST2 120336Z 04009KT 09/M03 A3031 RMK A01 T00931029  RH  042%=      5-min Rain = 0
KST2 120337Z 04010KT 09/M03 A3032 RMK A01 T00921029  RH  042%=      5-min Rain = 0
KST2 120338Z 04009KT 09/M03 A3032 RMK A01 T00921029  RH  042%=      5-min Rain = 0
KST2 120339Z 04009KT 09/M03 A3032 RMK A01 T00921029  RH  042%=      5-min Rain = 0
KST2 120340Z 04009KT 09/M03 A3032 RMK A01 T00921029  RH  043%=      5-min Rain = 0
KST2 120341Z 04009KT 09/M03 A3032 RMK A01 T00911029  RH  043%=      5-min Rain = 0
KST2 120342Z 04009KT 09/M03 A3032 RMK A01 T00911029  RH  043%=      5-min Rain = 0
KST2 120343Z 04009KT 09/M03 A3032 RMK A01 T00911028  RH  043%=      5-min Rain = 0
KST2 120344Z 04009KT 09/M03 A3032 RMK A01 T00911028  RH  043%=      5-min Rain = 0
KST2 120345Z 04009KT 09/M03 A3032 RMK A01 T00911029  RH  043%=      5-min Rain = 0
KST2 120346Z 04009KT 09/M03 A3032 RMK A01 T00901028  RH  043%=      5-min Rain = 0
KST2 120347Z 03008KT 09/M03 A3032 RMK A01 T00901028  RH  043%=      5-min Rain = 0
KST2 120348Z 04008KT 09/M03 A3032 RMK A01 T00891028  RH  043%=      5-min Rain = 0
KST2 120349Z 04008KT 09/M03 A3032 RMK A01 T00891028  RH  044%=      5-min Rain = 0
KST2 120350Z 04008KT 09/M03 A3032 RMK A01 T00891028  RH  044%=      5-min Rain = 0
KST2 120351Z 04008KT 09/M03 A3032 RMK A01 T00881028  RH  044%=      5-min Rain = 0
KST2 120352Z 04008KT 09/M03 A3032 RMK A01 T00881028  RH  044%=      5-min Rain = 0
KST2 120353Z 04007KT 09/M03 A3032 RMK A01 T00881028  RH  044%=      5-min Rain = 0
KST2 120354Z 04007KT 09/M03 A3032 RMK A01 T00871028  RH  044%=      5-min Rain = 0
KST2 120355Z 04007KT 09/M03 A3032 RMK A01 T00861028  RH  044%=      5-min Rain = 0
KST2 120356Z 04007KT 09/M03 A3032 RMK A01 T00851028  RH  045%=      5-min Rain = 0
KST2 120357Z 04008KT 09/M03 A3032 RMK A01 T00851028  RH  045%=      5-min Rain = 0
KST2 120358Z 04007KT 09/M03 A3032 RMK A01 T00851028  RH  045%=      5-min Rain = 0
KST2 120359Z 04007KT 09/M03 A3032 RMK A01 T00851029  RH  045%=      5-min Rain = 0
KST2 120400Z 04007KT 08/M03 A3032 RMK A01 T00841028  RH  045%=      5-min Rain = 0
KST2 120401Z 04007KT 08/M03 A3032 RMK A01 T00841029  RH  045%=      5-min Rain = 0
KST2 120402Z 04007KT 08/M03 A3032 RMK A01 T00831029  RH  045%=      5-min Rain = 0
KST2 120403Z 04008KT 08/M03 A3032 RMK A01 T00831029  RH  045%=      5-min Rain = 0
KST2 120404Z 04008KT 08/M03 A3032 RMK A01 T00821029  RH  045%=      5-min Rain = 0
KST2 120405Z 04008KT 08/M03 A3032 RMK A01 T00821029  RH  046%=      5-min Rain = 0
KST2 120406Z 04008KT 08/M03 A3032 RMK A01 T00811029  RH  046%=      5-min Rain = 0
KST2 120407Z 04008KT 08/M03 A3032 RMK A01 T00811029  RH  046%=      5-min Rain = 0
KST2 120408Z 04008KT 08/M03 A3032 RMK A01 T00811028  RH  046%=      5-min Rain = 0
KST2 120409Z 04008KT 08/M03 A3032 RMK A01 T00811028  RH  046%=      5-min Rain = 0
KST2 120410Z 04008KT 08/M03 A3032 RMK A01 T00811027  RH  046%=      5-min Rain = 0
KST2 120411Z 04008KT 08/M03 A3032 RMK A01 T00811027  RH  046%=      5-min Rain = 0
KST2 120412Z 04009KT 08/M03 A3032 RMK A01 T00821027  RH  046%=      5-min Rain = 0
KST2 120413Z 04008KT 08/M03 A3032 RMK A01 T00821027  RH  046%=      5-min Rain = 0
KST2 120414Z 04009KT 08/M03 A3033 RMK A01 T00831027  RH  046%=      5-min Rain = 0
KST2 120415Z 04009KT 08/M03 A3033 RMK A01 T00841027  RH  046%=      5-min Rain = 0
KST2 120416Z 04008KT 09/M03 A3033 RMK A01 T00851027  RH  045%=      5-min Rain = 0
KST2 120417Z 04009KT 09/M03 A3033 RMK A01 T00851027  RH  045%=      5-min Rain = 0
KST2 120418Z 04009KT 09/M03 A3033 RMK A01 T00851027  RH  045%=      5-min Rain = 0
KST2 120419Z 04009KT 09/M03 A3033 RMK A01 T00861027  RH  045%=      5-min Rain = 0
KST2 120420Z 04009KT 09/M03 A3033 RMK A01 T00861027  RH  045%=      5-min Rain = 0
KST2 120421Z 04009KT 09/M03 A3033 RMK A01 T00861027  RH  045%=      5-min Rain = 0
KST2 120422Z 04010KT 09/M03 A3033 RMK A01 T00871028  RH  044%=      5-min Rain = 0
KST2 120423Z 04011KT 09/M03 A3033 RMK A01 T00871028  RH  044%=      5-min Rain = 0
KST2 120424Z 04011KT 09/M03 A3033 RMK A01 T00861028  RH  044%=      5-min Rain = 0
KST2 120425Z 04011KT 09/M03 A3033 RMK A01 T00861028  RH  045%=      5-min Rain = 0
KST2 120426Z 03012KT 09/M03 A3033 RMK A01 T00861028  RH  045%=      5-min Rain = 0
KST2 120427Z 04011KT 09/M03 A3033 RMK A01 T00851028  RH  045%=      5-min Rain = 0
KST2 120428Z 04010KT 09/M03 A3033 RMK A01 T00851028  RH  045%=      5-min Rain = 0
KST2 120429Z 04011KT 08/M03 A3033 RMK A01 T00841028  RH  045%=      5-min Rain = 0
KST2 120430Z 03011KT 08/M03 A3033 RMK A01 T00841028  RH  045%=      5-min Rain = 0
KST2 120431Z 04010KT 08/M03 A3033 RMK A01 T00841028  RH  045%=      5-min Rain = 0
KST2 120432Z 04010KT 08/M03 A3033 RMK A01 T00831028  RH  045%=      5-min Rain = 0
KST2 120433Z 04011KT 08/M03 A3033 RMK A01 T00831028  RH  046%=      5-min Rain = 0
KST2 120434Z 04010KT 08/M03 A3033 RMK A01 T00831028  RH  046%=      5-min Rain = 0
KST2 120435Z 04011KT 08/M03 A3033 RMK A01 T00831027  RH  046%=      5-min Rain = 0
KST2 120436Z 04010KT 08/M03 A3033 RMK A01 T00821028  RH  046%=      5-min Rain = 0
KST2 120437Z 04010KT 08/M03 A3033 RMK A01 T00821028  RH  046%=      5-min Rain = 0
KST2 120438Z 04010KT 08/M03 A3033 RMK A01 T00811028  RH  046%=      5-min Rain = 0
KST2 120439Z 04011KT 08/M03 A3033 RMK A01 T00811028  RH  046%=      5-min Rain = 0
KST2 120440Z 04010KT 08/M03 A3033 RMK A01 T00811028  RH  046%=      5-min Rain = 0
KST2 120441Z 04011KT 08/M03 A3033 RMK A01 T00811028  RH  046%=      5-min Rain = 0
KST2 120442Z 04011KT 08/M03 A3033 RMK A01 T00811027  RH  046%=      5-min Rain = 0
KST2 120443Z 04012KT 08/M03 A3033 RMK A01 T00821027  RH  046%=      5-min Rain = 0
KST2 120444Z 04012KT 08/M03 A3033 RMK A01 T00821027  RH  046%=      5-min Rain = 0
KST2 120445Z 04013KT 08/M03 A3033 RMK A01 T00821027  RH  046%=      5-min Rain = 0
KST2 120446Z 03012KT 08/M03 A3033 RMK A01 T00821027  RH  046%=      5-min Rain = 0
KST2 120447Z 04013KT 08/M03 A3033 RMK A01 T00811027  RH  046%=      5-min Rain = 0
KST2 120448Z 04012KT 08/M03 A3033 RMK A01 T00811027  RH  046%=      5-min Rain = 0
KST2 120449Z 03012KT 08/M03 A3033 RMK A01 T00811027  RH  047%=      5-min Rain = 0
KST2 120450Z 03012KT 08/M03 A3033 RMK A01 T00801026  RH  047%=      5-min Rain = 0
KST2 120451Z 04013KT 08/M03 A3033 RMK A01 T00801027  RH  047%=      5-min Rain = 0
KST2 120452Z 04012KT 08/M03 A3033 RMK A01 T00801026  RH  047%=      5-min Rain = 0
KST2 120453Z 03012KT 08/M03 A3033 RMK A01 T00791027  RH  047%=      5-min Rain = 0
KST2 120454Z 03011KT 08/M03 A3033 RMK A01 T00791026  RH  047%=      5-min Rain = 0
KST2 120455Z 03011KT 08/M03 A3033 RMK A01 T00781026  RH  048%=      5-min Rain = 0
KST2 120456Z 03011KT 08/M03 A3033 RMK A01 T00771026  RH  048%=      5-min Rain = 0
KST2 120457Z 03010KT 08/M03 A3033 RMK A01 T00761027  RH  048%=      5-min Rain = 0
KST2 120458Z 03010KT 08/M03 A3033 RMK A01 T00761026  RH  048%=      5-min Rain = 0
KST2 120459Z 03010KT 08/M03 A3034 RMK A01 T00751026  RH  049%=      5-min Rain = 0

Page generated in 0.075 seconds.